Summary for KCOLONGM6

Ute Creek Golf Course, Longmont, CO 80504
Join the PWSweather.com Network
View data in metric units
Latest Conditions
Updated 11:49:22 AM MDT Tuesday, Sep 30, 2014
Data Currently Today's Max Today's Min Today's Average
Temperature 65.3°F18.5°C 65.5°F18.6°C 41.2°F5.1°C 49.0°F9.4°C
Dew Point 36.1°F2.3°C 46.8°F8.2°C 36.1°F2.3°C 43.5°F6.4°C
Winds 2.9 mph SSE4.7 kmh SSE 6.0 mph S9.7 kmh S CalmCalm 1.8 mph2.9 kmh
Wind Gusts 4.0 mph6.4 kmh 10.0 mph16.1 kmh -- 3.4 mph5.5 kmh
Humidity 34% 95% 34% 83%
Pressure 29.67 in1004.7 mb 29.69 in1005.4 mb 29.61 in1002.7 mb 29.65 in1004.1 mb
Precipitation 0.01 in0.3 mm - - 0.58 in14.7 mm
Trends
 
Station Profile
Ute Creek Golf CourseLongmont, CO 80504

Lat: 40.194, Lon: -105.067
Elevation: 5014
Station Type: Davis Vantage Vue

Detailed Summary for Tue, Sep 30, 2014
Hour (MDT) Temperature Dew Point Humidity Winds Wind Gusts Pressure Precip Precip Rate Daily Precip Total
11:49 AM 65.3°F18.5°C 36.1°F2.3°C 34% 2.9 mph SSE4.7 kmh SSE 4.0 mph6.4 kmh 29.67 in1004.7 mb 0.00 in0.0 mm 0.00 in/hr0.0 mm/hr 0.01 in0.3 mm
11:48 AM 65.5°F18.6°C 37.0°F2.8°C 35% 2.9 mph ESE4.7 kmh ESE 8.1 mph13.0 kmh 29.67 in1004.7 mb 0.00 in0.0 mm 0.00 in/hr0.0 mm/hr 0.01 in0.3 mm
11:47 AM 65.3°F18.5°C 39.0°F3.9°C 38% 2.9 mph E4.7 kmh E 8.1 mph13.0 kmh 29.67 in1004.7 mb 0.00 in0.0 mm 0.00 in/hr0.0 mm/hr 0.01 in0.3 mm
11:46 AM 65.1°F18.4°C 40.3°F4.6°C 40% 2.9 mph E4.7 kmh E 2.9 mph4.7 kmh 29.67 in1004.7 mb 0.00 in0.0 mm 0.00 in/hr0.0 mm/hr 0.01 in0.3 mm
11:45 AM 65.1°F18.4°C 40.3°F4.6°C 40% 2.9 mph SE4.7 kmh SE 4.0 mph6.4 kmh 29.67 in1004.7 mb 0.00 in0.0 mm 0.00 in/hr0.0 mm/hr 0.01 in0.3 mm
11:44 AM 65.1°F18.4°C 40.8°F4.9°C 41% 2.9 mph ENE4.7 kmh ENE 4.9 mph7.9 kmh 29.67 in1004.7 mb 0.00 in0.0 mm 0.00 in/hr0.0 mm/hr 0.01 in0.3 mm
11:43 AM 64.9°F18.3°C 42.4°F5.8°C 44% 2.9 mph SE4.7 kmh SE 6.0 mph9.7 kmh 29.67 in1004.7 mb 0.00 in0.0 mm 0.00 in/hr0.0 mm/hr 0.01 in0.3 mm
11:42 AM 64.8°F18.2°C 39.9°F4.4°C 40% 4.0 mph ESE6.4 kmh ESE 2.9 mph4.7 kmh 29.67 in1004.7 mb 0.00 in0.0 mm 0.00 in/hr0.0 mm/hr 0.01 in0.3 mm
11:41 AM 64.8°F18.2°C 38.5°F3.6°C 38% 4.0 mph E6.4 kmh E 4.0 mph6.4 kmh 29.67 in1004.7 mb 0.00 in0.0 mm 0.00 in/hr0.0 mm/hr 0.01 in0.3 mm
11:40 AM 64.8°F18.2°C 39.9°F4.4°C 40% 4.0 mph E6.4 kmh E 4.9 mph7.9 kmh 29.67 in1004.7 mb 0.00 in0.0 mm 0.00 in/hr0.0 mm/hr 0.01 in0.3 mm
11:39 AM 64.6°F18.1°C 39.0°F3.9°C 39% 4.0 mph SE6.4 kmh SE 4.9 mph7.9 kmh 29.67 in1004.7 mb 0.00 in0.0 mm 0.00 in/hr0.0 mm/hr 0.01 in0.3 mm
11:38 AM 64.6°F18.1°C 41.5°F5.3°C 43% 4.0 mph ENE6.4 kmh ENE 6.9 mph11.1 kmh 29.67 in1004.7 mb 0.00 in0.0 mm 0.00 in/hr0.0 mm/hr 0.01 in0.3 mm
11:37 AM 64.4°F18.0°C 40.1°F4.5°C 41% 4.0 mph ENE6.4 kmh ENE 6.9 mph11.1 kmh 29.67 in1004.7 mb 0.00 in0.0 mm 0.00 in/hr0.0 mm/hr 0.01 in0.3 mm
11:36 AM 64.2°F17.9°C 40.6°F4.8°C 42% 4.0 mph E6.4 kmh E 6.9 mph11.1 kmh 29.67 in1004.7 mb 0.00 in0.0 mm 0.00 in/hr0.0 mm/hr 0.01 in0.3 mm
11:35 AM 64.2°F17.9°C 40.6°F4.8°C 42% 2.9 mph ENE4.7 kmh ENE 6.9 mph11.1 kmh 29.67 in1004.7 mb 0.00 in0.0 mm 0.00 in/hr0.0 mm/hr 0.01 in0.3 mm
11:34 AM 64.2°F17.9°C 39.4°F4.1°C 40% 2.9 mph ENE4.7 kmh ENE 9.0 mph14.5 kmh 29.67 in1004.7 mb 0.00 in0.0 mm 0.00 in/hr0.0 mm/hr 0.01 in0.3 mm
11:33 AM 64.4°F18.0°C 40.1°F4.5°C 41% 2.9 mph ENE4.7 kmh ENE 8.1 mph13.0 kmh 29.67 in1004.7 mb 0.00 in0.0 mm 0.00 in/hr0.0 mm/hr 0.01 in0.3 mm
11:32 AM 64.6°F18.1°C 40.3°F4.6°C 41% 2.0 mph ESE3.2 kmh ESE 6.9 mph11.1 kmh 29.67 in1004.7 mb 0.00 in0.0 mm 0.00 in/hr0.0 mm/hr 0.01 in0.3 mm
11:31 AM 64.6°F18.1°C 41.0°F5.0°C 42% 2.0 mph NE3.2 kmh NE 6.9 mph11.1 kmh 29.67 in1004.7 mb 0.00 in0.0 mm 0.00 in/hr0.0 mm/hr 0.01 in0.3 mm
11:30 AM 64.8°F18.2°C 42.3°F5.7°C 44% 2.0 mph E3.2 kmh E 8.1 mph13.0 kmh 29.67 in1004.7 mb 0.00 in0.0 mm 0.00 in/hr0.0 mm/hr 0.01 in0.3 mm
11:29 AM 64.8°F18.2°C 41.2°F5.1°C 42% 2.0 mph E3.2 kmh E 4.0 mph6.4 kmh 29.68 in1005.1 mb 0.00 in0.0 mm 0.00 in/hr0.0 mm/hr 0.01 in0.3 mm
11:28 AM 64.6°F18.1°C 43.3°F6.3°C 46% 2.0 mph ENE3.2 kmh ENE 4.9 mph7.9 kmh 29.68 in1005.1 mb 0.00 in0.0 mm 0.00 in/hr0.0 mm/hr 0.01 in0.3 mm
11:27 AM 64.6°F18.1°C 42.8°F6.0°C 45% 2.0 mph S3.2 kmh S 2.9 mph4.7 kmh 29.68 in1005.1 mb 0.00 in0.0 mm 0.00 in/hr0.0 mm/hr 0.01 in0.3 mm
11:26 AM 64.4°F18.0°C 42.6°F5.9°C 45% 2.0 mph NE3.2 kmh NE 4.0 mph6.4 kmh 29.68 in1005.1 mb 0.00 in0.0 mm 0.00 in/hr0.0 mm/hr 0.01 in0.3 mm
11:25 AM 64.2°F17.9°C 43.0°F6.1°C 46% 2.9 mph ESE4.7 kmh ESE 4.0 mph6.4 kmh 29.68 in1005.1 mb 0.00 in0.0 mm 0.00 in/hr0.0 mm/hr 0.01 in0.3 mm
11:24 AM 64.0°F17.8°C 42.3°F5.7°C 45% 2.9 mph SSW4.7 kmh SSW 0.9 mph1.4 kmh 29.68 in1005.1 mb 0.00 in0.0 mm 0.00 in/hr0.0 mm/hr 0.01 in0.3 mm
11:23 AM 64.0°F17.8°C 42.3°F5.7°C 45% 2.9 mph SE4.7 kmh SE 4.0 mph6.4 kmh 29.68 in1005.1 mb 0.00 in0.0 mm 0.00 in/hr0.0 mm/hr 0.01 in0.3 mm
11:22 AM 63.9°F17.7°C 42.1°F5.6°C 45% 2.9 mph SE4.7 kmh SE 4.9 mph7.9 kmh 29.68 in1005.1 mb 0.00 in0.0 mm 0.00 in/hr0.0 mm/hr 0.01 in0.3 mm
11:21 AM 63.9°F17.7°C 41.5°F5.3°C 44% 2.9 mph SSE4.7 kmh SSE 4.9 mph7.9 kmh 29.68 in1005.1 mb 0.00 in0.0 mm 0.00 in/hr0.0 mm/hr 0.01 in0.3 mm
11:20 AM 63.9°F17.7°C 42.1°F5.6°C 45% 2.9 mph E4.7 kmh E 8.1 mph13.0 kmh 29.68 in1005.1 mb 0.00 in0.0 mm 0.00 in/hr0.0 mm/hr 0.01 in0.3 mm
11:19 AM 63.9°F17.7°C 42.1°F5.6°C 45% 2.9 mph ENE4.7 kmh ENE 6.9 mph11.1 kmh 29.68 in1005.1 mb 0.00 in0.0 mm 0.00 in/hr0.0 mm/hr 0.01 in0.3 mm
11:18 AM 63.9°F17.7°C 43.2°F6.2°C 47% 2.9 mph ENE4.7 kmh ENE 8.1 mph13.0 kmh 29.68 in1005.1 mb 0.00 in0.0 mm 0.00 in/hr0.0 mm/hr 0.01 in0.3 mm
11:17 AM 63.9°F17.7°C 44.8°F7.1°C 50% 2.0 mph ESE3.2 kmh ESE 4.9 mph7.9 kmh 29.68 in1005.1 mb 0.00 in0.0 mm 0.00 in/hr0.0 mm/hr 0.01 in0.3 mm
11:16 AM 63.9°F17.7°C 43.7°F6.5°C 48% 2.0 mph SE3.2 kmh SE 8.1 mph13.0 kmh 29.68 in1005.1 mb 0.00 in0.0 mm 0.00 in/hr0.0 mm/hr 0.01 in0.3 mm
11:15 AM 63.9°F17.7°C 44.2°F6.8°C 49% 2.0 mph E3.2 kmh E 8.1 mph13.0 kmh 29.68 in1005.1 mb 0.00 in0.0 mm 0.00 in/hr0.0 mm/hr 0.01 in0.3 mm
11:14 AM 63.9°F17.7°C 44.8°F7.1°C 50% 2.0 mph SE3.2 kmh SE 4.9 mph7.9 kmh 29.69 in1005.4 mb 0.00 in0.0 mm 0.00 in/hr0.0 mm/hr 0.01 in0.3 mm
11:13 AM 63.9°F17.7°C 44.8°F7.1°C 50% 2.0 mph E3.2 kmh E 4.9 mph7.9 kmh 29.69 in1005.4 mb 0.00 in0.0 mm 0.00 in/hr0.0 mm/hr 0.01 in0.3 mm
11:12 AM 63.9°F17.7°C 44.8°F7.1°C 50% 2.0 mph SE3.2 kmh SE 2.0 mph3.2 kmh 29.69 in1005.4 mb 0.00 in0.0 mm 0.00 in/hr0.0 mm/hr 0.01 in0.3 mm
11:11 AM 63.7°F17.6°C 44.2°F6.8°C 49% 2.0 mph SE3.2 kmh SE 4.9 mph7.9 kmh 29.69 in1005.4 mb 0.00 in0.0 mm 0.00 in/hr0.0 mm/hr 0.01 in0.3 mm
11:10 AM 63.7°F17.6°C 44.2°F6.8°C 49% 2.0 mph NE3.2 kmh NE 2.9 mph4.7 kmh 29.69 in1005.4 mb 0.00 in0.0 mm 0.00 in/hr0.0 mm/hr 0.01 in0.3 mm
11:09 AM 63.7°F17.6°C 44.8°F7.1°C 50% 2.0 mph E3.2 kmh E 2.0 mph3.2 kmh 29.69 in1005.4 mb 0.00 in0.0 mm 0.00 in/hr0.0 mm/hr 0.01 in0.3 mm
11:08 AM 63.7°F17.6°C 42.4°F5.8°C 46% 2.0 mph NE3.2 kmh NE 4.0 mph6.4 kmh 29.69 in1005.4 mb 0.00 in0.0 mm 0.00 in/hr0.0 mm/hr 0.01 in0.3 mm
11:07 AM 63.7°F17.6°C 41.9°F5.5°C 45% 2.0 mph ENE3.2 kmh ENE 4.0 mph6.4 kmh 29.69 in1005.4 mb 0.00 in0.0 mm 0.00 in/hr0.0 mm/hr 0.01 in0.3 mm
11:06 AM 63.9°F17.7°C 42.6°F5.9°C 46% 0.9 mph NE1.4 kmh NE 4.9 mph7.9 kmh 29.69 in1005.4 mb 0.00 in0.0 mm 0.00 in/hr0.0 mm/hr 0.01 in0.3 mm
11:05 AM 63.9°F17.7°C 41.5°F5.3°C 44% 0.9 mph ENE1.4 kmh ENE 4.9 mph7.9 kmh 29.69 in1005.4 mb 0.00 in0.0 mm 0.00 in/hr0.0 mm/hr 0.01 in0.3 mm
11:04 AM 63.9°F17.7°C 41.5°F5.3°C 44% 0.9 mph NE1.4 kmh NE 4.0 mph6.4 kmh 29.69 in1005.4 mb 0.00 in0.0 mm 0.00 in/hr0.0 mm/hr 0.01 in0.3 mm
11:03 AM 63.7°F17.6°C 42.4°F5.8°C 46% 0.9 mph E1.4 kmh E 2.9 mph4.7 kmh 29.69 in1005.4 mb 0.00 in0.0 mm 0.00 in/hr0.0 mm/hr 0.01 in0.3 mm
11:02 AM 63.7°F17.6°C 45.7°F7.6°C 52% 0.9 mph ENE1.4 kmh ENE 2.0 mph3.2 kmh 29.69 in1005.4 mb 0.00 in0.0 mm 0.00 in/hr0.0 mm/hr 0.01 in0.3 mm
11:01 AM 63.5°F17.5°C 43.5°F6.4°C 48% 0.9 mph W1.4 kmh W 6.0 mph9.7 kmh 29.69 in1005.4 mb 0.00 in0.0 mm 0.00 in/hr0.0 mm/hr 0.01 in0.3 mm
11:00 AM 63.5°F17.5°C 45.0°F7.2°C 51% 0.9 mph ENE1.4 kmh ENE 6.0 mph9.7 kmh 29.69 in1005.4 mb 0.00 in0.0 mm 0.00 in/hr0.0 mm/hr 0.01 in0.3 mm
10:59 AM 63.3°F17.4°C 45.3°F7.4°C 52% 0.9 mph W1.4 kmh W 4.9 mph7.9 kmh 29.69 in1005.4 mb 0.00 in0.0 mm 0.00 in/hr0.0 mm/hr 0.01 in0.3 mm
10:58 AM 63.3°F17.4°C 44.4°F6.9°C 50% 0.9 mph NE1.4 kmh NE 4.9 mph7.9 kmh 29.69 in1005.4 mb 0.00 in0.0 mm 0.00 in/hr0.0 mm/hr 0.01 in0.3 mm
10:57 AM 63.1°F17.3°C 43.7°F6.5°C 49% 0.9 mph E1.4 kmh E 4.9 mph7.9 kmh 29.69 in1005.4 mb 0.00 in0.0 mm 0.00 in/hr0.0 mm/hr 0.01 in0.3 mm
10:56 AM 63.0°F17.2°C 44.6°F7.0°C 51% 0.9 mph SE1.4 kmh SE 2.9 mph4.7 kmh 29.69 in1005.4 mb 0.00 in0.0 mm 0.00 in/hr0.0 mm/hr 0.01 in0.3 mm
10:55 AM 62.6°F17.0°C 45.7°F7.6°C 54% 0.9 mph SE1.4 kmh SE 2.9 mph4.7 kmh 29.69 in1005.4 mb 0.00 in0.0 mm 0.00 in/hr0.0 mm/hr 0.01 in0.3 mm
10:54 AM 62.4°F16.9°C 44.1°F6.7°C 51% 0.9 mph SE1.4 kmh SE 2.0 mph3.2 kmh 29.69 in1005.4 mb 0.00 in0.0 mm 0.00 in/hr0.0 mm/hr 0.01 in0.3 mm
10:53 AM 62.2°F16.8°C 43.9°F6.6°C 51% 0.9 mph SSE1.4 kmh SSE 2.0 mph3.2 kmh 29.69 in1005.4 mb 0.00 in0.0 mm 0.00 in/hr0.0 mm/hr 0.01 in0.3 mm
10:52 AM 62.1°F16.7°C 43.2°F6.2°C 50% 0.9 mph SE1.4 kmh SE 2.9 mph4.7 kmh 29.69 in1005.4 mb 0.00 in0.0 mm 0.00 in/hr0.0 mm/hr 0.01 in0.3 mm
10:51 AM 62.1°F16.7°C 42.6°F5.9°C 49% 0.9 mph S1.4 kmh S 4.0 mph6.4 kmh 29.69 in1005.4 mb 0.00 in0.0 mm 0.00 in/hr0.0 mm/hr 0.01 in0.3 mm
10:50 AM 61.9°F16.6°C 42.4°F5.8°C 49% 0.9 mph NE1.4 kmh NE 4.0 mph6.4 kmh 29.69 in1005.4 mb 0.00 in0.0 mm 0.00 in/hr0.0 mm/hr 0.01 in0.3 mm
10:49 AM 61.9°F16.6°C 43.5°F6.4°C 51% 0.9 mph E1.4 kmh E 4.9 mph7.9 kmh 29.69 in1005.4 mb 0.00 in0.0 mm 0.00 in/hr0.0 mm/hr 0.01 in0.3 mm
10:48 AM 61.7°F16.5°C 43.3°F6.3°C 51% 0.9 mph NW1.4 kmh NW 2.9 mph4.7 kmh 29.69 in1005.4 mb 0.00 in0.0 mm 0.00 in/hr0.0 mm/hr 0.01 in0.3 mm
10:47 AM 61.5°F16.4°C 42.6°F5.9°C 50% 0.9 mph ENE1.4 kmh ENE 2.0 mph3.2 kmh 29.69 in1005.4 mb 0.00 in0.0 mm 0.00 in/hr0.0 mm/hr 0.01 in0.3 mm
10:46 AM 61.5°F16.4°C 43.7°F6.5°C 52% 0.9 mph ENE1.4 kmh ENE 2.0 mph3.2 kmh 29.69 in1005.4 mb 0.00 in0.0 mm 0.00 in/hr0.0 mm/hr 0.01 in0.3 mm
10:45 AM 61.3°F16.3°C 42.6°F5.9°C 50% 2.0 mph SE3.2 kmh SE 0.9 mph1.4 kmh 29.69 in1005.4 mb 0.00 in0.0 mm 0.00 in/hr0.0 mm/hr 0.01 in0.3 mm
10:44 AM 61.2°F16.2°C 43.3°F6.3°C 52% 2.0 mph SE3.2 kmh SE 2.0 mph3.2 kmh 29.69 in1005.4 mb 0.00 in0.0 mm 0.00 in/hr0.0 mm/hr 0.01 in0.3 mm
10:43 AM 61.0°F16.1°C 42.3°F5.7°C 50% 2.0 mph E3.2 kmh E 2.9 mph4.7 kmh 29.69 in1005.4 mb 0.00 in0.0 mm 0.00 in/hr0.0 mm/hr 0.01 in0.3 mm
10:42 AM 61.0°F16.1°C 43.2°F6.2°C 52% 2.0 mph ENE3.2 kmh ENE 0.9 mph1.4 kmh 29.69 in1005.4 mb 0.00 in0.0 mm 0.00 in/hr0.0 mm/hr 0.01 in0.3 mm
10:41 AM 60.6°F15.9°C 43.9°F6.6°C 54% 2.0 mph SSE3.2 kmh SSE 4.0 mph6.4 kmh 29.69 in1005.4 mb 0.00 in0.0 mm 0.00 in/hr0.0 mm/hr 0.01 in0.3 mm
10:40 AM 60.6°F15.9°C 43.0°F6.1°C 52% 2.0 mph SE3.2 kmh SE 4.0 mph6.4 kmh 29.69 in1005.4 mb 0.00 in0.0 mm 0.00 in/hr0.0 mm/hr 0.01 in0.3 mm
10:39 AM 60.6°F15.9°C 43.3°F6.3°C 53% 2.0 mph SE3.2 kmh SE 4.9 mph7.9 kmh 29.69 in1005.4 mb 0.00 in0.0 mm 0.00 in/hr0.0 mm/hr 0.01 in0.3 mm
10:38 AM 60.4°F15.8°C 43.7°F6.5°C 54% 2.0 mph NE3.2 kmh NE 2.9 mph4.7 kmh 29.69 in1005.4 mb 0.00 in0.0 mm 0.00 in/hr0.0 mm/hr 0.01 in0.3 mm
10:37 AM 60.3°F15.7°C 44.1°F6.7°C 55% 2.0 mph E3.2 kmh E 4.9 mph7.9 kmh 29.69 in1005.4 mb 0.00 in0.0 mm 0.00 in/hr0.0 mm/hr 0.01 in0.3 mm
10:36 AM 60.3°F15.7°C 44.1°F6.7°C 55% 2.0 mph E3.2 kmh E 4.9 mph7.9 kmh 29.69 in1005.4 mb 0.00 in0.0 mm 0.00 in/hr0.0 mm/hr 0.01 in0.3 mm
10:35 AM 60.1°F15.6°C 43.3°F6.3°C 54% 2.0 mph ENE3.2 kmh ENE 4.0 mph6.4 kmh 29.69 in1005.4 mb 0.00 in0.0 mm 0.00 in/hr0.0 mm/hr 0.01 in0.3 mm
10:34 AM 59.9°F15.5°C 44.6°F7.0°C 57% 2.0 mph E3.2 kmh E 2.9 mph4.7 kmh 29.69 in1005.4 mb 0.00 in0.0 mm 0.00 in/hr0.0 mm/hr 0.01 in0.3 mm
10:33 AM 59.7°F15.4°C 45.9°F7.7°C 60% 2.0 mph ENE3.2 kmh ENE 2.9 mph4.7 kmh 29.69 in1005.4 mb 0.00 in0.0 mm 0.00 in/hr0.0 mm/hr 0.01 in0.3 mm
10:32 AM 59.7°F15.4°C 45.0°F7.2°C 58% 2.9 mph SE4.7 kmh SE 6.9 mph11.1 kmh 29.69 in1005.4 mb 0.00 in0.0 mm 0.00 in/hr0.0 mm/hr 0.01 in0.3 mm
10:31 AM 59.5°F15.3°C 44.2°F6.8°C 57% 2.0 mph ESE3.2 kmh ESE 6.0 mph9.7 kmh 29.69 in1005.4 mb 0.00 in0.0 mm 0.00 in/hr0.0 mm/hr 0.01 in0.3 mm
10:30 AM 59.5°F15.3°C 44.8°F7.1°C 58% 2.0 mph ENE3.2 kmh ENE 6.9 mph11.1 kmh 29.69 in1005.4 mb 0.00 in0.0 mm 0.00 in/hr0.0 mm/hr 0.01 in0.3 mm
10:29 AM 59.5°F15.3°C 44.8°F7.1°C 58% 2.0 mph ENE3.2 kmh ENE 4.0 mph6.4 kmh 29.69 in1005.4 mb 0.00 in0.0 mm 0.00 in/hr0.0 mm/hr 0.01 in0.3 mm
10:28 AM 59.4°F15.2°C 43.7°F6.5°C 56% 2.0 mph ENE3.2 kmh ENE 4.9 mph7.9 kmh 29.69 in1005.4 mb 0.00 in0.0 mm 0.00 in/hr0.0 mm/hr 0.01 in0.3 mm
10:27 AM 59.4°F15.2°C 44.1°F6.7°C 57% 2.0 mph ENE3.2 kmh ENE 4.9 mph7.9 kmh 29.69 in1005.4 mb 0.00 in0.0 mm 0.00 in/hr0.0 mm/hr 0.01 in0.3 mm
10:26 AM 59.4°F15.2°C 43.2°F6.2°C 55% 2.0 mph E3.2 kmh E 8.1 mph13.0 kmh 29.69 in1005.4 mb 0.00 in0.0 mm 0.00 in/hr0.0 mm/hr 0.01 in0.3 mm
10:25 AM 59.4°F15.2°C 43.7°F6.5°C 56% 2.0 mph SE3.2 kmh SE 8.1 mph13.0 kmh 29.69 in1005.4 mb 0.00 in0.0 mm 0.00 in/hr0.0 mm/hr 0.01 in0.3 mm
10:24 AM 59.2°F15.1°C 43.0°F6.1°C 55% 2.0 mph ENE3.2 kmh ENE 4.9 mph7.9 kmh 29.69 in1005.4 mb 0.00 in0.0 mm 0.00 in/hr0.0 mm/hr 0.01 in0.3 mm
10:23 AM 59.2°F15.1°C 43.5°F6.4°C 56% 2.0 mph ENE3.2 kmh ENE 4.0 mph6.4 kmh 29.69 in1005.4 mb 0.00 in0.0 mm 0.00 in/hr0.0 mm/hr 0.01 in0.3 mm
10:22 AM 59.0°F15.0°C 44.2°F6.8°C 58% 2.0 mph NW3.2 kmh NW 4.9 mph7.9 kmh 29.69 in1005.4 mb 0.00 in0.0 mm 0.00 in/hr0.0 mm/hr 0.01 in0.3 mm
10:21 AM 58.8°F14.9°C 43.7°F6.5°C 57% 2.0 mph E3.2 kmh E 4.9 mph7.9 kmh 29.69 in1005.4 mb 0.00 in0.0 mm 0.00 in/hr0.0 mm/hr 0.01 in0.3 mm
10:20 AM 58.8°F14.9°C 45.0°F7.2°C 60% 2.0 mph E3.2 kmh E 4.9 mph7.9 kmh 29.69 in1005.4 mb 0.00 in0.0 mm 0.00 in/hr0.0 mm/hr 0.01 in0.3 mm
10:19 AM 58.8°F14.9°C 44.6°F7.0°C 59% 2.0 mph ENE3.2 kmh ENE 2.9 mph4.7 kmh 29.69 in1005.4 mb 0.00 in0.0 mm 0.00 in/hr0.0 mm/hr 0.01 in0.3 mm
10:18 AM 58.6°F14.8°C 43.9°F6.6°C 58% 2.0 mph ENE3.2 kmh ENE 2.9 mph4.7 kmh 29.69 in1005.4 mb 0.00 in0.0 mm 0.00 in/hr0.0 mm/hr 0.01 in0.3 mm
10:17 AM 58.6°F14.8°C 43.9°F6.6°C 58% 2.0 mph E3.2 kmh E 4.9 mph7.9 kmh 29.69 in1005.4 mb 0.00 in0.0 mm 0.00 in/hr0.0 mm/hr 0.01 in0.3 mm
10:16 AM 58.6°F14.8°C 43.9°F6.6°C 58% 2.0 mph ENE3.2 kmh ENE 4.9 mph7.9 kmh 29.69 in1005.4 mb 0.00 in0.0 mm 0.00 in/hr0.0 mm/hr 0.01 in0.3 mm
10:15 AM 58.6°F14.8°C 43.0°F6.1°C 56% 2.0 mph ESE3.2 kmh ESE 6.9 mph11.1 kmh 29.69 in1005.4 mb 0.00 in0.0 mm 0.00 in/hr0.0 mm/hr 0.01 in0.3 mm
10:14 AM 58.6°F14.8°C 44.4°F6.9°C 59% 0.9 mph ENE1.4 kmh ENE 2.0 mph3.2 kmh 29.69 in1005.4 mb 0.00 in0.0 mm 0.00 in/hr0.0 mm/hr 0.01 in0.3 mm
10:13 AM 58.5°F14.7°C 42.8°F6.0°C 56% 0.9 mph E1.4 kmh E 2.0 mph3.2 kmh 29.69 in1005.4 mb 0.00 in0.0 mm 0.00 in/hr0.0 mm/hr 0.01 in0.3 mm
10:12 AM 58.5°F14.7°C 42.8°F6.0°C 56% 2.0 mph NE3.2 kmh NE 2.9 mph4.7 kmh 29.69 in1005.4 mb 0.00 in0.0 mm 0.00 in/hr0.0 mm/hr 0.01 in0.3 mm
10:11 AM 58.3°F14.6°C 42.6°F5.9°C 56% 0.9 mph NE1.4 kmh NE 4.0 mph6.4 kmh 29.69 in1005.4 mb 0.00 in0.0 mm 0.00 in/hr0.0 mm/hr 0.01 in0.3 mm
10:10 AM 58.3°F14.6°C 43.2°F6.2°C 57% 0.9 mph E1.4 kmh E 4.9 mph7.9 kmh 29.69 in1005.4 mb 0.00 in0.0 mm 0.00 in/hr0.0 mm/hr 0.01 in0.3 mm
10:09 AM 58.3°F14.6°C 45.0°F7.2°C 61% 0.9 mph ENE1.4 kmh ENE 2.9 mph4.7 kmh 29.69 in1005.4 mb 0.00 in0.0 mm 0.00 in/hr0.0 mm/hr 0.01 in0.3 mm
10:08 AM 57.9°F14.4°C 44.6°F7.0°C 61% 0.9 mph E1.4 kmh E 2.0 mph3.2 kmh 29.69 in1005.4 mb 0.00 in0.0 mm 0.00 in/hr0.0 mm/hr 0.01 in0.3 mm
10:07 AM 57.9°F14.4°C 44.6°F7.0°C 61% 0.9 mph E1.4 kmh E 2.0 mph3.2 kmh 29.69 in1005.4 mb 0.00 in0.0 mm 0.00 in/hr0.0 mm/hr 0.01 in0.3 mm
10:06 AM 57.9°F14.4°C 45.9°F7.7°C 64% 0.9 mph E1.4 kmh E 2.9 mph4.7 kmh 29.69 in1005.4 mb 0.00 in0.0 mm 0.00 in/hr0.0 mm/hr 0.01 in0.3 mm
10:05 AM 57.7°F14.3°C 45.3°F7.4°C 63% 0.9 mph E1.4 kmh E 0.9 mph1.4 kmh 29.69 in1005.4 mb 0.00 in0.0 mm 0.00 in/hr0.0 mm/hr 0.01 in0.3 mm
10:04 AM 57.7°F14.3°C 44.8°F7.1°C 62% 0.9 mph ENE1.4 kmh ENE 2.9 mph4.7 kmh 29.69 in1005.4 mb 0.00 in0.0 mm 0.00 in/hr0.0 mm/hr 0.01 in0.3 mm
10:03 AM 57.6°F14.2°C 44.6°F7.0°C 62% 0.9 mph E1.4 kmh E 2.9 mph4.7 kmh 29.69 in1005.4 mb 0.00 in0.0 mm 0.00 in/hr0.0 mm/hr 0.01 in0.3 mm
10:02 AM 57.6°F14.2°C 45.9°F7.7°C 65% 0.9 mph NE1.4 kmh NE 4.0 mph6.4 kmh 29.69 in1005.4 mb 0.00 in0.0 mm 0.00 in/hr0.0 mm/hr 0.01 in0.3 mm
10:01 AM 57.4°F14.1°C 45.7°F7.6°C 65% 0.9 mph NNW1.4 kmh NNW 0.9 mph1.4 kmh 29.69 in1005.4 mb 0.00 in0.0 mm 0.00 in/hr0.0 mm/hr 0.01 in0.3 mm
10:00 AM 57.2°F14.0°C 44.8°F7.1°C 63% 0.9 mph NNW1.4 kmh NNW 2.0 mph3.2 kmh 29.69 in1005.4 mb 0.00 in0.0 mm 0.00 in/hr0.0 mm/hr 0.01 in0.3 mm
09:59 AM 57.0°F13.9°C 46.2°F7.9°C 67% 0.9 mph NNW1.4 kmh NNW 2.0 mph3.2 kmh 29.69 in1005.4 mb 0.00 in0.0 mm 0.00 in/hr0.0 mm/hr 0.01 in0.3 mm
09:58 AM 57.0°F13.9°C 45.3°F7.4°C 65% 0.9 mph N1.4 kmh N 0.9 mph1.4 kmh 29.69 in1005.4 mb 0.00 in0.0 mm 0.00 in/hr0.0 mm/hr 0.01 in0.3 mm
09:57 AM 56.8°F13.8°C 45.7°F7.6°C 66% 0.9 mph 1.4 kmh 2.0 mph3.2 kmh 29.69 in1005.4 mb 0.00 in0.0 mm 0.00 in/hr0.0 mm/hr 0.01 in0.3 mm
09:56 AM 56.7°F13.7°C 45.0°F7.2°C 65% 0.9 mph N1.4 kmh N 0.9 mph1.4 kmh 29.69 in1005.4 mb 0.00 in0.0 mm 0.00 in/hr0.0 mm/hr 0.01 in0.3 mm
09:55 AM 56.7°F13.7°C 46.2°F7.9°C 68% 0.9 mph WNW1.4 kmh WNW 2.0 mph3.2 kmh 29.69 in1005.4 mb 0.00 in0.0 mm 0.00 in/hr0.0 mm/hr 0.01 in0.3 mm
09:54 AM 56.7°F13.7°C 46.2°F7.9°C 68% 0.9 mph WNW1.4 kmh WNW 2.9 mph4.7 kmh 29.69 in1005.4 mb 0.00 in0.0 mm 0.00 in/hr0.0 mm/hr 0.01 in0.3 mm
09:53 AM 56.7°F13.7°C 45.5°F7.5°C 66% 0.9 mph NNW1.4 kmh NNW 2.9 mph4.7 kmh 29.69 in1005.4 mb 0.00 in0.0 mm 0.00 in/hr0.0 mm/hr 0.01 in0.3 mm
09:52 AM 56.7°F13.7°C 45.5°F7.5°C 66% 0.9 mph NE1.4 kmh NE 4.0 mph6.4 kmh 29.69 in1005.4 mb 0.00 in0.0 mm 0.00 in/hr0.0 mm/hr 0.01 in0.3 mm
09:51 AM 56.7°F13.7°C 45.5°F7.5°C 66% 0.9 mph N1.4 kmh N 2.9 mph4.7 kmh 29.69 in1005.4 mb 0.00 in0.0 mm 0.00 in/hr0.0 mm/hr 0.01 in0.3 mm
09:50 AM 56.5°F13.6°C 44.4°F6.9°C 64% 0.9 mph N1.4 kmh N 0.9 mph1.4 kmh 29.69 in1005.4 mb 0.00 in0.0 mm 0.00 in/hr0.0 mm/hr 0.01 in0.3 mm
09:49 AM 56.7°F13.7°C 44.6°F7.0°C 64% 0.9 mph N1.4 kmh N 2.0 mph3.2 kmh 29.69 in1005.4 mb 0.00 in0.0 mm 0.00 in/hr0.0 mm/hr 0.01 in0.3 mm
09:48 AM 56.7°F13.7°C 44.6°F7.0°C 64% 0.9 mph NW1.4 kmh NW 2.9 mph4.7 kmh 29.69 in1005.4 mb 0.00 in0.0 mm 0.00 in/hr0.0 mm/hr 0.01 in0.3 mm
09:47 AM 56.7°F13.7°C 45.5°F7.5°C 66% 0.9 mph 1.4 kmh 3.0 mph4.8 kmh 29.69 in1005.4 mb 0.00 in0.0 mm 0.00 in/hr0.0 mm/hr 0.01 in0.3 mm
09:46 AM 56.7°F13.7°C 44.2°F6.8°C 63% 0.9 mph N1.4 kmh N 3.0 mph4.8 kmh 29.69 in1005.4 mb 0.00 in0.0 mm 0.00 in/hr0.0 mm/hr 0.01 in0.3 mm
09:45 AM 56.8°F13.8°C 45.7°F7.6°C 66% Calm Calm 2.0 mph3.2 kmh 29.69 in1005.4 mb 0.00 in0.0 mm 0.00 in/hr0.0 mm/hr 0.01 in0.3 mm
09:44 AM 56.8°F13.8°C 46.8°F8.2°C 69% Calm Calm 2.0 mph3.2 kmh 29.67 in1004.7 mb 0.00 in0.0 mm 0.00 in/hr0.0 mm/hr 0.01 in0.3 mm
09:43 AM 56.7°F13.7°C 46.6°F8.1°C 69% Calm Calm 2.0 mph3.2 kmh 29.67 in1004.7 mb 0.00 in0.0 mm 0.00 in/hr0.0 mm/hr 0.01 in0.3 mm
09:42 AM 56.7°F13.7°C 46.2°F7.9°C 68% Calm Calm 0.9 mph1.4 kmh 29.67 in1004.7 mb 0.00 in0.0 mm 0.00 in/hr0.0 mm/hr 0.01 in0.3 mm
09:41 AM 56.5°F13.6°C 46.0°F7.8°C 68% Calm Calm 0.9 mph1.4 kmh 29.67 in1004.7 mb 0.00 in0.0 mm 0.00 in/hr0.0 mm/hr 0.01 in0.3 mm
09:40 AM 56.5°F13.6°C 46.0°F7.8°C 68% Calm Calm 0.9 mph1.4 kmh 29.67 in1004.7 mb 0.00 in0.0 mm 0.00 in/hr0.0 mm/hr 0.01 in0.3 mm
09:39 AM 56.3°F13.5°C 46.6°F8.1°C 70% Calm Calm 0.9 mph1.4 kmh 29.67 in1004.7 mb 0.00 in0.0 mm 0.00 in/hr0.0 mm/hr 0.01 in0.3 mm
09:38 AM 56.1°F13.4°C 46.0°F7.8°C 69% Calm Calm 0.9 mph1.4 kmh 29.67 in1004.7 mb 0.00 in0.0 mm 0.00 in/hr0.0 mm/hr 0.01 in0.3 mm
09:37 AM 55.9°F13.3°C 45.9°F7.7°C 69% Calm Calm 0.9 mph1.4 kmh 29.67 in1004.7 mb 0.00 in0.0 mm 0.00 in/hr0.0 mm/hr 0.01 in0.3 mm
09:36 AM 55.8°F13.2°C 45.7°F7.6°C 69% 0.9 mph NE1.4 kmh NE 2.0 mph3.2 kmh 29.67 in1004.7 mb 0.00 in0.0 mm 0.00 in/hr0.0 mm/hr 0.01 in0.3 mm
09:35 AM 55.8°F13.2°C 46.6°F8.1°C 71% 0.9 mph ENE1.4 kmh ENE 2.0 mph3.2 kmh 29.67 in1004.7 mb 0.00 in0.0 mm 0.00 in/hr0.0 mm/hr 0.01 in0.3 mm
09:34 AM 55.6°F13.1°C 46.0°F7.8°C 70% 0.9 mph E1.4 kmh E 0.9 mph1.4 kmh 29.67 in1004.7 mb 0.00 in0.0 mm 0.00 in/hr0.0 mm/hr 0.01 in0.3 mm
09:33 AM 55.4°F13.0°C 46.2°F7.9°C 71% 0.9 mph ESE1.4 kmh ESE 0.9 mph1.4 kmh 29.67 in1004.7 mb 0.00 in0.0 mm 0.00 in/hr0.0 mm/hr 0.01 in0.3 mm
09:32 AM 55.2°F12.9°C 46.4°F8.0°C 72% 0.9 mph ESE1.4 kmh ESE 0.9 mph1.4 kmh 29.67 in1004.7 mb 0.00 in0.0 mm 0.00 in/hr0.0 mm/hr 0.01 in0.3 mm
09:31 AM 55.2°F12.9°C 45.7°F7.6°C 70% 0.9 mph E1.4 kmh E 2.0 mph3.2 kmh 29.67 in1004.7 mb 0.00 in0.0 mm 0.00 in/hr0.0 mm/hr 0.01 in0.3 mm
09:30 AM 55.0°F12.8°C 46.6°F8.1°C 73% 0.9 mph E1.4 kmh E 2.0 mph3.2 kmh 29.67 in1004.7 mb 0.00 in0.0 mm 0.00 in/hr0.0 mm/hr 0.01 in0.3 mm
09:29 AM 55.0°F12.8°C 46.2°F7.9°C 72% 0.9 mph NNE1.4 kmh NNE 2.0 mph3.2 kmh 29.67 in1004.7 mb 0.00 in0.0 mm 0.00 in/hr0.0 mm/hr 0.01 in0.3 mm
09:28 AM 54.9°F12.7°C 45.7°F7.6°C 71% 0.9 mph ENE1.4 kmh ENE 2.9 mph4.7 kmh 29.67 in1004.7 mb 0.00 in0.0 mm 0.00 in/hr0.0 mm/hr 0.01 in0.3 mm
09:27 AM 54.9°F12.7°C 45.7°F7.6°C 71% 0.9 mph ENE1.4 kmh ENE 2.9 mph4.7 kmh 29.67 in1004.7 mb 0.00 in0.0 mm 0.00 in/hr0.0 mm/hr 0.01 in0.3 mm
09:26 AM 54.9°F12.7°C 45.3°F7.4°C 70% 0.9 mph NE1.4 kmh NE 4.0 mph6.4 kmh 29.67 in1004.7 mb 0.00 in0.0 mm 0.00 in/hr0.0 mm/hr 0.01 in0.3 mm
09:25 AM 54.9°F12.7°C 45.7°F7.6°C 71% 0.9 mph ENE1.4 kmh ENE 6.0 mph9.7 kmh 29.67 in1004.7 mb 0.00 in0.0 mm 0.00 in/hr0.0 mm/hr 0.01 in0.3 mm
09:24 AM 54.7°F12.6°C 45.1°F7.3°C 70% 0.9 mph ENE1.4 kmh ENE 2.9 mph4.7 kmh 29.67 in1004.7 mb 0.01 in0.3 mm 0.00 in/hr0.0 mm/hr 0.01 in0.3 mm
09:23 AM 54.7°F12.6°C 45.9°F7.7°C 72% 0.9 mph ENE1.4 kmh ENE 2.9 mph4.7 kmh 29.67 in1004.7 mb 0.01 in0.3 mm 0.00 in/hr0.0 mm/hr 0.01 in0.3 mm
09:22 AM 54.5°F12.5°C 46.0°F7.8°C 73% 0.9 mph ENE1.4 kmh ENE 2.0 mph3.2 kmh 29.67 in1004.7 mb 0.01 in0.3 mm 0.00 in/hr0.0 mm/hr 0.01 in0.3 mm
09:21 AM 54.3°F12.4°C 45.5°F7.5°C 72% 0.9 mph NE1.4 kmh NE 2.0 mph3.2 kmh 29.67 in1004.7 mb 0.01 in0.3 mm 0.00 in/hr0.0 mm/hr 0.01 in0.3 mm
09:20 AM 54.3°F12.4°C 45.5°F7.5°C 72% 0.9 mph NE1.4 kmh NE 2.9 mph4.7 kmh 29.67 in1004.7 mb 0.01 in0.3 mm 0.00 in/hr0.0 mm/hr 0.01 in0.3 mm
09:19 AM 54.1°F12.3°C 46.0°F7.8°C 74% 0.9 mph ESE1.4 kmh ESE 2.0 mph3.2 kmh 29.67 in1004.7 mb 0.01 in0.3 mm 0.00 in/hr0.0 mm/hr 0.01 in0.3 mm
09:18 AM 54.0°F12.2°C 45.9°F7.7°C 74% 0.9 mph ESE1.4 kmh ESE 2.0 mph3.2 kmh 29.67 in1004.7 mb 0.01 in0.3 mm 0.00 in/hr0.0 mm/hr 0.01 in0.3 mm
09:17 AM 54.0°F12.2°C 46.2°F7.9°C 75% 0.9 mph ENE1.4 kmh ENE 2.0 mph3.2 kmh 29.67 in1004.7 mb 0.01 in0.3 mm 0.00 in/hr0.0 mm/hr 0.01 in0.3 mm
09:16 AM 53.8°F12.1°C 46.4°F8.0°C 76% 0.9 mph SE1.4 kmh SE 2.9 mph4.7 kmh 29.67 in1004.7 mb 0.01 in0.3 mm 0.00 in/hr0.0 mm/hr 0.01 in0.3 mm
09:15 AM 53.6°F12.0°C 46.2°F7.9°C 76% 0.9 mph NE1.4 kmh NE 2.9 mph4.7 kmh 29.67 in1004.7 mb 0.01 in0.3 mm 0.00 in/hr0.0 mm/hr 0.01 in0.3 mm
09:14 AM 53.4°F11.9°C 45.7°F7.6°C 75% 0.9 mph NE1.4 kmh NE 4.0 mph6.4 kmh 29.67 in1004.7 mb 0.01 in0.3 mm 0.00 in/hr0.0 mm/hr 0.01 in0.3 mm
09:13 AM 53.2°F11.8°C 46.2°F7.9°C 77% 0.9 mph NE1.4 kmh NE 0.9 mph1.4 kmh 29.67 in1004.7 mb 0.01 in0.3 mm 0.00 in/hr0.0 mm/hr 0.01 in0.3 mm
09:12 AM 53.1°F11.7°C 45.7°F7.6°C 76% 0.9 mph ENE1.4 kmh ENE 0.9 mph1.4 kmh 29.67 in1004.7 mb 0.01 in0.3 mm 0.00 in/hr0.0 mm/hr 0.01 in0.3 mm
09:11 AM 52.9°F11.6°C 45.9°F7.7°C 77% 0.9 mph ENE1.4 kmh ENE 2.0 mph3.2 kmh 29.67 in1004.7 mb 0.01 in0.3 mm 0.00 in/hr0.0 mm/hr 0.01 in0.3 mm
09:10 AM 52.5°F11.4°C 45.5°F7.5°C 77% 0.9 mph NW1.4 kmh NW 2.9 mph4.7 kmh 29.67 in1004.7 mb 0.01 in0.3 mm 0.00 in/hr0.0 mm/hr 0.01 in0.3 mm
09:09 AM 52.5°F11.4°C 45.9°F7.7°C 78% 0.9 mph ENE1.4 kmh ENE 2.9 mph4.7 kmh 29.67 in1004.7 mb 0.01 in0.3 mm 0.00 in/hr0.0 mm/hr 0.01 in0.3 mm
09:08 AM 52.3°F11.3°C 46.0°F7.8°C 79% 2.0 mph NNW3.2 kmh NNW 0.9 mph1.4 kmh 29.67 in1004.7 mb 0.01 in0.3 mm 0.00 in/hr0.0 mm/hr 0.01 in0.3 mm
09:07 AM 52.2°F11.2°C 45.9°F7.7°C 79% 2.0 mph NW3.2 kmh NW 0.9 mph1.4 kmh 29.67 in1004.7 mb 0.01 in0.3 mm 0.00 in/hr0.0 mm/hr 0.01 in0.3 mm
09:06 AM 52.0°F11.1°C 45.7°F7.6°C 79% 2.0 mph NNW3.2 kmh NNW 2.0 mph3.2 kmh 29.67 in1004.7 mb 0.01 in0.3 mm 0.00 in/hr0.0 mm/hr 0.01 in0.3 mm
09:05 AM 51.8°F11.0°C 45.5°F7.5°C 79% 2.0 mph NNE3.2 kmh NNE 2.0 mph3.2 kmh 29.67 in1004.7 mb 0.01 in0.3 mm 0.00 in/hr0.0 mm/hr 0.01 in0.3 mm
09:04 AM 51.6°F10.9°C 45.3°F7.4°C 79% 2.9 mph N4.7 kmh N 2.9 mph4.7 kmh 29.67 in1004.7 mb 0.01 in0.3 mm 0.00 in/hr0.0 mm/hr 0.01 in0.3 mm
09:03 AM 51.4°F10.8°C 45.9°F7.7°C 81% 2.9 mph NNW4.7 kmh NNW 2.9 mph4.7 kmh 29.67 in1004.7 mb 0.01 in0.3 mm 0.00 in/hr0.0 mm/hr 0.01 in0.3 mm
09:02 AM 51.3°F10.7°C 45.3°F7.4°C 80% 2.9 mph N4.7 kmh N 2.9 mph4.7 kmh 29.67 in1004.7 mb 0.01 in0.3 mm 0.00 in/hr0.0 mm/hr 0.01 in0.3 mm
09:01 AM 51.1°F10.6°C 45.1°F7.3°C 80% 2.9 mph NNE4.7 kmh NNE 4.9 mph7.9 kmh 29.67 in1004.7 mb 0.01 in0.3 mm 0.00 in/hr0.0 mm/hr 0.01 in0.3 mm
09:00 AM 51.1°F10.6°C 45.5°F7.5°C 81% 2.9 mph N4.7 kmh N 6.9 mph11.1 kmh 29.67 in1004.7 mb 0.01 in0.3 mm 0.00 in/hr0.0 mm/hr 0.01 in0.3 mm
08:59 AM 50.9°F10.5°C 45.7°F7.6°C 82% 2.9 mph ENE4.7 kmh ENE 4.0 mph6.4 kmh 29.67 in1004.7 mb 0.01 in0.3 mm 0.00 in/hr0.0 mm/hr 0.01 in0.3 mm
08:58 AM 50.7°F10.4°C 45.5°F7.5°C 82% 2.9 mph NNW4.7 kmh NNW 4.9 mph7.9 kmh 29.67 in1004.7 mb 0.01 in0.3 mm 0.00 in/hr0.0 mm/hr 0.01 in0.3 mm
08:57 AM 50.5°F10.3°C 45.3°F7.4°C 82% 2.9 mph NNE4.7 kmh NNE 4.9 mph7.9 kmh 29.67 in1004.7 mb 0.01 in0.3 mm 0.00 in/hr0.0 mm/hr 0.01 in0.3 mm
08:56 AM 50.5°F10.3°C 45.3°F7.4°C 82% 2.9 mph NE4.7 kmh NE 8.9 mph14.3 kmh 29.67 in1004.7 mb 0.01 in0.3 mm 0.00 in/hr0.0 mm/hr 0.01 in0.3 mm
08:55 AM 50.5°F10.3°C 45.9°F7.7°C 84% 2.9 mph NNW4.7 kmh NNW 8.9 mph14.3 kmh 29.67 in1004.7 mb 0.01 in0.3 mm 0.00 in/hr0.0 mm/hr 0.01 in0.3 mm
08:54 AM 50.4°F10.2°C 45.7°F7.6°C 84% 2.9 mph NNW4.7 kmh NNW 4.9 mph7.9 kmh 29.67 in1004.7 mb 0.01 in0.3 mm 0.00 in/hr0.0 mm/hr 0.01 in0.3 mm
08:53 AM 50.4°F10.2°C 45.7°F7.6°C 84% 2.9 mph NW4.7 kmh NW 6.0 mph9.7 kmh 29.67 in1004.7 mb 0.01 in0.3 mm 0.00 in/hr0.0 mm/hr 0.01 in0.3 mm
08:52 AM 50.2°F10.1°C 45.5°F7.5°C 84% 2.9 mph N4.7 kmh N 6.0 mph9.7 kmh 29.67 in1004.7 mb 0.01 in0.3 mm 0.00 in/hr0.0 mm/hr 0.01 in0.3 mm
08:51 AM 50.2°F10.1°C 45.9°F7.7°C 85% 2.9 mph NNE4.7 kmh NNE 4.0 mph6.4 kmh 29.67 in1004.7 mb 0.01 in0.3 mm 0.00 in/hr0.0 mm/hr 0.01 in0.3 mm
08:50 AM 50.0°F10.0°C 46.0°F7.8°C 86% 2.9 mph N4.7 kmh N 2.9 mph4.7 kmh 29.67 in1004.7 mb 0.01 in0.3 mm 0.00 in/hr0.0 mm/hr 0.01 in0.3 mm
08:49 AM 49.8°F9.9°C 45.9°F7.7°C 86% 2.9 mph NW4.7 kmh NW 2.9 mph4.7 kmh 29.67 in1004.7 mb 0.01 in0.3 mm 0.00 in/hr0.0 mm/hr 0.01 in0.3 mm
08:48 AM 49.6°F9.8°C 45.7°F7.6°C 86% 2.9 mph NNW4.7 kmh NNW 2.9 mph4.7 kmh 29.67 in1004.7 mb 0.01 in0.3 mm 0.00 in/hr0.0 mm/hr 0.01 in0.3 mm
08:47 AM 49.6°F9.8°C 45.7°F7.6°C 86% 2.9 mph NNE4.7 kmh NNE 4.0 mph6.4 kmh 29.67 in1004.7 mb 0.01 in0.3 mm 0.00 in/hr0.0 mm/hr 0.01 in0.3 mm
08:46 AM 49.5°F9.7°C 45.1°F7.3°C 85% 2.9 mph NW4.7 kmh NW 4.9 mph7.9 kmh 29.67 in1004.7 mb 0.01 in0.3 mm 0.00 in/hr0.0 mm/hr 0.01 in0.3 mm
08:45 AM 49.5°F9.7°C 45.5°F7.5°C 86% 2.9 mph NE4.7 kmh NE 4.9 mph7.9 kmh 29.67 in1004.7 mb 0.01 in0.3 mm 0.00 in/hr0.0 mm/hr 0.01 in0.3 mm
08:44 AM 49.5°F9.7°C 45.1°F7.3°C 85% 2.9 mph NNW4.7 kmh NNW 4.9 mph7.9 kmh 29.67 in1004.7 mb 0.01 in0.3 mm 0.00 in/hr0.0 mm/hr 0.01 in0.3 mm
08:43 AM 49.3°F9.6°C 45.0°F7.2°C 85% 4.0 mph N6.4 kmh N 4.9 mph7.9 kmh 29.67 in1004.7 mb 0.01 in0.3 mm 0.00 in/hr0.0 mm/hr 0.01 in0.3 mm
08:42 AM 49.3°F9.6°C 45.3°F7.4°C 86% 4.0 mph NE6.4 kmh NE 4.9 mph7.9 kmh 29.67 in1004.7 mb 0.01 in0.3 mm 0.00 in/hr0.0 mm/hr 0.01 in0.3 mm
08:41 AM 49.3°F9.6°C 45.3°F7.4°C 86% 4.0 mph NW6.4 kmh NW 4.9 mph7.9 kmh 29.67 in1004.7 mb 0.01 in0.3 mm 0.00 in/hr0.0 mm/hr 0.01 in0.3 mm
08:40 AM 49.1°F9.5°C 45.3°F7.4°C 87% 4.0 mph NNW6.4 kmh NNW 6.0 mph9.7 kmh 29.67 in1004.7 mb 0.01 in0.3 mm 0.00 in/hr0.0 mm/hr 0.01 in0.3 mm
08:39 AM 48.9°F9.4°C 45.1°F7.3°C 87% 4.0 mph NW6.4 kmh NW 4.9 mph7.9 kmh 29.67 in1004.7 mb 0.01 in0.3 mm 0.00 in/hr0.0 mm/hr 0.01 in0.3 mm
08:38 AM 48.9°F9.4°C 45.5°F7.5°C 88% 4.0 mph WNW6.4 kmh WNW 4.0 mph6.4 kmh 29.67 in1004.7 mb 0.01 in0.3 mm 0.00 in/hr0.0 mm/hr 0.01 in0.3 mm
08:37 AM 48.7°F9.3°C 45.3°F7.4°C 88% 4.0 mph NW6.4 kmh NW 4.0 mph6.4 kmh 29.67 in1004.7 mb 0.01 in0.3 mm 0.00 in/hr0.0 mm/hr 0.01 in0.3 mm
08:36 AM 48.6°F9.2°C 44.8°F7.1°C 87% 4.0 mph NW6.4 kmh NW 4.0 mph6.4 kmh 29.67 in1004.7 mb 0.01 in0.3 mm 0.00 in/hr0.0 mm/hr 0.01 in0.3 mm
08:35 AM 48.4°F9.1°C 44.8°F7.1°C 87% 4.9 mph NW7.9 kmh NW 4.9 mph7.9 kmh 29.67 in1004.7 mb 0.01 in0.3 mm 0.00 in/hr0.0 mm/hr 0.01 in0.3 mm
08:34 AM 48.4°F9.1°C 45.0°F7.2°C 88% 4.9 mph NW7.9 kmh NW 4.9 mph7.9 kmh 29.67 in1004.7 mb 0.01 in0.3 mm 0.00 in/hr0.0 mm/hr 0.01 in0.3 mm
08:33 AM 48.4°F9.1°C 45.0°F7.2°C 88% 4.9 mph NW7.9 kmh NW 6.0 mph9.7 kmh 29.67 in1004.7 mb 0.01 in0.3 mm 0.00 in/hr0.0 mm/hr 0.01 in0.3 mm
08:32 AM 48.2°F9.0°C 44.8°F7.1°C 88% 4.9 mph NW7.9 kmh NW 6.9 mph11.1 kmh 29.67 in1004.7 mb 0.01 in0.3 mm 0.00 in/hr0.0 mm/hr 0.01 in0.3 mm
08:31 AM 48.2°F9.0°C 44.8°F7.1°C 88% 4.9 mph NW7.9 kmh NW 4.9 mph7.9 kmh 29.67 in1004.7 mb 0.01 in0.3 mm 0.00 in/hr0.0 mm/hr 0.01 in0.3 mm
08:30 AM 48.0°F8.9°C 44.6°F7.0°C 88% 4.9 mph NW7.9 kmh NW 6.0 mph9.7 kmh 29.67 in1004.7 mb 0.01 in0.3 mm 0.00 in/hr0.0 mm/hr 0.01 in0.3 mm
08:29 AM 48.0°F8.9°C 44.6°F7.0°C 88% 4.0 mph NW6.4 kmh NW 8.1 mph13.0 kmh 29.66 in1004.4 mb 0.01 in0.3 mm 0.00 in/hr0.0 mm/hr 0.01 in0.3 mm
08:28 AM 48.0°F8.9°C 45.1°F7.3°C 90% 4.0 mph NNW6.4 kmh NNW 8.1 mph13.0 kmh 29.66 in1004.4 mb 0.01 in0.3 mm 0.00 in/hr0.0 mm/hr 0.01 in0.3 mm
08:27 AM 47.8°F8.8°C 45.3°F7.4°C 91% 2.9 mph WNW4.7 kmh WNW 6.9 mph11.1 kmh 29.66 in1004.4 mb 0.01 in0.3 mm 0.60 in/hr15.2 mm/hr 0.01 in0.3 mm
08:26 AM 47.7°F8.7°C 45.0°F7.2°C 90% 2.9 mph NW4.7 kmh NW 6.0 mph9.7 kmh 29.66 in1004.4 mb 0.00 in0.0 mm 0.00 in/hr0.0 mm/hr 0.01 in0.3 mm
08:25 AM 47.5°F8.6°C 44.8°F7.1°C 90% 2.0 mph NW3.2 kmh NW 6.0 mph9.7 kmh 29.66 in1004.4 mb 0.00 in0.0 mm 0.00 in/hr0.0 mm/hr 0.00 in0.0 mm
08:24 AM 47.5°F8.6°C 44.8°F7.1°C 90% 2.0 mph NW3.2 kmh NW 6.0 mph9.7 kmh 29.66 in1004.4 mb 0.00 in0.0 mm 0.00 in/hr0.0 mm/hr 0.00 in0.0 mm
08:23 AM 47.5°F8.6°C 44.8°F7.1°C 90% 2.0 mph NW3.2 kmh NW 6.9 mph11.1 kmh 29.66 in1004.4 mb 0.00 in0.0 mm 0.00 in/hr0.0 mm/hr 0.00 in0.0 mm
08:22 AM 47.3°F8.5°C 44.6°F7.0°C 90% 0.9 mph NW1.4 kmh NW 6.9 mph11.1 kmh 29.66 in1004.4 mb 0.00 in0.0 mm 0.00 in/hr0.0 mm/hr 0.00 in0.0 mm
08:21 AM 47.1°F8.4°C 44.1°F6.7°C 89% 0.9 mph NNE1.4 kmh NNE 2.9 mph4.7 kmh 29.66 in1004.4 mb 0.00 in0.0 mm 0.00 in/hr0.0 mm/hr 0.00 in0.0 mm
08:20 AM 47.1°F8.4°C 44.1°F6.7°C 89% 0.9 mph NNW1.4 kmh NNW 0.9 mph1.4 kmh 29.66 in1004.4 mb 0.00 in0.0 mm 0.00 in/hr0.0 mm/hr 0.00 in0.0 mm
08:19 AM 46.9°F8.3°C 43.9°F6.6°C 89% 0.9 mph NW1.4 kmh NW 0.9 mph1.4 kmh 29.66 in1004.4 mb 0.00 in0.0 mm 0.00 in/hr0.0 mm/hr 0.00 in0.0 mm
08:18 AM 46.9°F8.3°C 44.2°F6.8°C 90% 0.9 mph NW1.4 kmh NW 0.9 mph1.4 kmh 29.66 in1004.4 mb 0.00 in0.0 mm 0.00 in/hr0.0 mm/hr 0.00 in0.0 mm
08:17 AM 46.8°F8.2°C 44.2°F6.8°C 91% 0.9 mph NW1.4 kmh NW 2.0 mph3.2 kmh 29.66 in1004.4 mb 0.00 in0.0 mm 0.00 in/hr0.0 mm/hr 0.00 in0.0 mm
08:16 AM 46.8°F8.2°C 44.1°F6.7°C 90% 0.9 mph NNW1.4 kmh NNW 0.9 mph1.4 kmh 29.66 in1004.4 mb 0.00 in0.0 mm 0.00 in/hr0.0 mm/hr 0.00 in0.0 mm
08:15 AM 46.6°F8.1°C 43.9°F6.6°C 90% 0.9 mph ESE1.4 kmh ESE 2.9 mph4.7 kmh 29.66 in1004.4 mb 0.00 in0.0 mm 0.00 in/hr0.0 mm/hr 0.00 in0.0 mm
08:14 AM 46.6°F8.1°C 44.6°F7.0°C 93% 0.9 mph SE1.4 kmh SE 2.0 mph3.2 kmh 29.66 in1004.4 mb 0.00 in0.0 mm 0.00 in/hr0.0 mm/hr 0.00 in0.0 mm
08:13 AM 46.2°F7.9°C 44.1°F6.7°C 92% 2.0 mph WSW3.2 kmh WSW 2.9 mph4.7 kmh 29.66 in1004.4 mb 0.00 in0.0 mm 0.00 in/hr0.0 mm/hr 0.00 in0.0 mm
08:12 AM 46.0°F7.8°C 43.5°F6.4°C 91% 2.0 mph W3.2 kmh W 4.0 mph6.4 kmh 29.66 in1004.4 mb 0.00 in0.0 mm 0.00 in/hr0.0 mm/hr 0.00 in0.0 mm
08:11 AM 45.9°F7.7°C 43.7°F6.5°C 92% 2.0 mph WNW3.2 kmh WNW 2.9 mph4.7 kmh 29.66 in1004.4 mb 0.00 in0.0 mm 0.00 in/hr0.0 mm/hr 0.00 in0.0 mm
08:10 AM 45.9°F7.7°C 43.7°F6.5°C 92% 2.0 mph NE3.2 kmh NE 0.9 mph1.4 kmh 29.66 in1004.4 mb 0.00 in0.0 mm 0.00 in/hr0.0 mm/hr 0.00 in0.0 mm
08:09 AM 45.7°F7.6°C 43.5°F6.4°C 92% 2.0 mph NNE3.2 kmh NNE 2.0 mph3.2 kmh 29.66 in1004.4 mb 0.00 in0.0 mm 0.00 in/hr0.0 mm/hr 0.00 in0.0 mm
08:08 AM 45.7°F7.6°C 43.5°F6.4°C 92% 2.0 mph NE3.2 kmh NE 0.9 mph1.4 kmh 29.66 in1004.4 mb 0.00 in0.0 mm 0.00 in/hr0.0 mm/hr 0.00 in0.0 mm
08:07 AM 45.7°F7.6°C 43.5°F6.4°C 92% 2.0 mph NNW3.2 kmh NNW 2.0 mph3.2 kmh 29.66 in1004.4 mb 0.00 in0.0 mm 0.00 in/hr0.0 mm/hr 0.00 in0.0 mm
08:06 AM 45.5°F7.5°C 43.3°F6.3°C 92% 2.9 mph NE4.7 kmh NE 4.0 mph6.4 kmh 29.66 in1004.4 mb 0.00 in0.0 mm 0.00 in/hr0.0 mm/hr 0.00 in0.0 mm
08:05 AM 45.3°F7.4°C 43.3°F6.3°C 93% 2.9 mph NW4.7 kmh NW 4.0 mph6.4 kmh 29.66 in1004.4 mb 0.00 in0.0 mm 0.00 in/hr0.0 mm/hr 0.00 in0.0 mm
08:04 AM 45.3°F7.4°C 43.3°F6.3°C 93% 2.9 mph 4.7 kmh 4.0 mph6.4 kmh 29.66 in1004.4 mb 0.00 in0.0 mm 0.00 in/hr0.0 mm/hr 0.00 in0.0 mm
08:03 AM 45.1°F7.3°C 43.2°F6.2°C 93% 2.9 mph NNE4.7 kmh NNE 4.9 mph7.9 kmh 29.66 in1004.4 mb 0.00 in0.0 mm 0.00 in/hr0.0 mm/hr 0.00 in0.0 mm
08:02 AM 45.1°F7.3°C 43.0°F6.1°C 92% 2.9 mph NW4.7 kmh NW 4.0 mph6.4 kmh 29.66 in1004.4 mb 0.00 in0.0 mm 0.00 in/hr0.0 mm/hr 0.00 in0.0 mm
08:01 AM 45.0°F7.2°C 42.8°F6.0°C 92% 2.9 mph WNW4.7 kmh WNW 2.9 mph4.7 kmh 29.66 in1004.4 mb 0.00 in0.0 mm 0.00 in/hr0.0 mm/hr 0.00 in0.0 mm
08:00 AM 45.0°F7.2°C 43.0°F6.1°C 93% 2.9 mph N4.7 kmh N 2.0 mph3.2 kmh 29.66 in1004.4 mb 0.00 in0.0 mm 0.00 in/hr0.0 mm/hr 0.00 in0.0 mm
07:59 AM 45.0°F7.2°C 43.0°F6.1°C 93% 2.9 mph N4.7 kmh N 4.0 mph6.4 kmh 29.65 in1004.1 mb 0.00 in0.0 mm 0.00 in/hr0.0 mm/hr 0.00 in0.0 mm
07:58 AM 44.8°F7.1°C 42.8°F6.0°C 93% 4.0 mph NW6.4 kmh NW 6.0 mph9.7 kmh 29.65 in1004.1 mb 0.00 in0.0 mm 0.00 in/hr0.0 mm/hr 0.00 in0.0 mm
07:57 AM 44.8°F7.1°C 42.8°F6.0°C 93% 2.9 mph NNW4.7 kmh NNW 6.0 mph9.7 kmh 29.65 in1004.1 mb 0.00 in0.0 mm 0.00 in/hr0.0 mm/hr 0.00 in0.0 mm
07:56 AM 44.8°F7.1°C 42.8°F6.0°C 93% 2.9 mph NW4.7 kmh NW 4.9 mph7.9 kmh 29.65 in1004.1 mb 0.00 in0.0 mm 0.00 in/hr0.0 mm/hr 0.00 in0.0 mm
07:55 AM 44.6°F7.0°C 42.6°F5.9°C 93% 2.9 mph NW4.7 kmh NW 6.0 mph9.7 kmh 29.65 in1004.1 mb 0.00 in0.0 mm 0.00 in/hr0.0 mm/hr 0.00 in0.0 mm
07:54 AM 44.4°F6.9°C 42.8°F6.0°C 94% 2.0 mph NW3.2 kmh NW 6.9 mph11.1 kmh 29.65 in1004.1 mb 0.00 in0.0 mm 0.00 in/hr0.0 mm/hr 0.00 in0.0 mm
07:53 AM 44.4°F6.9°C 42.8°F6.0°C 94% 2.0 mph WNW3.2 kmh WNW 6.9 mph11.1 kmh 29.65 in1004.1 mb 0.00 in0.0 mm 0.00 in/hr0.0 mm/hr 0.00 in0.0 mm
07:52 AM 44.2°F6.8°C 42.3°F5.7°C 93% 0.9 mph W1.4 kmh W 4.0 mph6.4 kmh 29.65 in1004.1 mb 0.00 in0.0 mm 0.00 in/hr0.0 mm/hr 0.00 in0.0 mm
07:51 AM 44.1°F6.7°C 42.1°F5.6°C 93% 0.9 mph NW1.4 kmh NW 2.9 mph4.7 kmh 29.65 in1004.1 mb 0.00 in0.0 mm 0.00 in/hr0.0 mm/hr 0.00 in0.0 mm
07:50 AM 44.1°F6.7°C 42.1°F5.6°C 93% 0.9 mph NW1.4 kmh NW 4.0 mph6.4 kmh 29.65 in1004.1 mb 0.00 in0.0 mm 0.00 in/hr0.0 mm/hr 0.00 in0.0 mm
07:49 AM 44.1°F6.7°C 42.4°F5.8°C 94% 0.9 mph NNW1.4 kmh NNW 4.0 mph6.4 kmh 29.65 in1004.1 mb 0.00 in0.0 mm 0.00 in/hr0.0 mm/hr 0.00 in0.0 mm
07:48 AM 43.9°F6.6°C 41.9°F5.5°C 93% 0.9 mph NW1.4 kmh NW 2.0 mph3.2 kmh 29.65 in1004.1 mb 0.00 in0.0 mm 0.00 in/hr0.0 mm/hr 0.00 in0.0 mm
07:47 AM 43.9°F6.6°C 42.3°F5.7°C 94% 0.9 mph NW1.4 kmh NW 0.9 mph1.4 kmh 29.65 in1004.1 mb 0.00 in0.0 mm 0.00 in/hr0.0 mm/hr 0.00 in0.0 mm
07:46 AM 43.9°F6.6°C 42.3°F5.7°C 94% 0.9 mph NW1.4 kmh NW 0.9 mph1.4 kmh 29.65 in1004.1 mb 0.00 in0.0 mm 0.00 in/hr0.0 mm/hr 0.00 in0.0 mm
07:45 AM 43.7°F6.5°C 42.4°F5.8°C 95% 2.0 mph NW3.2 kmh NW -- 29.65 in1004.1 mb 0.00 in0.0 mm 0.00 in/hr0.0 mm/hr 0.00 in0.0 mm
07:44 AM 43.5°F6.4°C 42.3°F5.7°C 95% 2.0 mph NW3.2 kmh NW 2.0 mph3.2 kmh 29.65 in1004.1 mb 0.00 in0.0 mm 0.00 in/hr0.0 mm/hr 0.00 in0.0 mm
07:43 AM 43.3°F6.3°C 42.1°F5.6°C 95% 2.9 mph NNW4.7 kmh NNW 2.0 mph3.2 kmh 29.65 in1004.1 mb 0.00 in0.0 mm 0.00 in/hr0.0 mm/hr 0.00 in0.0 mm
07:42 AM 43.3°F6.3°C 42.1°F5.6°C 95% 2.9 mph NNE4.7 kmh NNE 2.9 mph4.7 kmh 29.65 in1004.1 mb 0.00 in0.0 mm 0.00 in/hr0.0 mm/hr 0.00 in0.0 mm
07:41 AM 43.2°F6.2°C 41.9°F5.5°C 95% 2.9 mph NNE4.7 kmh NNE 2.9 mph4.7 kmh 29.65 in1004.1 mb 0.00 in0.0 mm 0.00 in/hr0.0 mm/hr 0.00 in0.0 mm
07:40 AM 43.0°F6.1°C 41.7°F5.4°C 95% 2.0 mph N3.2 kmh N 2.0 mph3.2 kmh 29.65 in1004.1 mb 0.00 in0.0 mm 0.00 in/hr0.0 mm/hr 0.00 in0.0 mm
07:39 AM 42.8°F6.0°C 41.5°F5.3°C 95% 2.9 mph NW4.7 kmh NW 2.0 mph3.2 kmh 29.65 in1004.1 mb 0.00 in0.0 mm 0.00 in/hr0.0 mm/hr 0.00 in0.0 mm
07:38 AM 42.6°F5.9°C 41.4°F5.2°C 95% 2.9 mph NW4.7 kmh NW 2.9 mph4.7 kmh 29.65 in1004.1 mb 0.00 in0.0 mm 0.00 in/hr0.0 mm/hr 0.00 in0.0 mm
07:37 AM 42.4°F5.8°C 41.2°F5.1°C 95% 2.9 mph NNW4.7 kmh NNW 4.0 mph6.4 kmh 29.65 in1004.1 mb 0.00 in0.0 mm 0.00 in/hr0.0 mm/hr 0.00 in0.0 mm
07:36 AM 42.4°F5.8°C 41.2°F5.1°C 95% 2.9 mph NNE4.7 kmh NNE 6.9 mph11.1 kmh 29.65 in1004.1 mb 0.00 in0.0 mm 0.00 in/hr0.0 mm/hr 0.00 in0.0 mm
07:35 AM 42.3°F5.7°C 41.0°F5.0°C 95% 2.0 mph NNE3.2 kmh NNE 7.0 mph11.3 kmh 29.65 in1004.1 mb 0.00 in0.0 mm 0.00 in/hr0.0 mm/hr 0.00 in0.0 mm
07:34 AM 42.3°F5.7°C 41.0°F5.0°C 95% 2.0 mph NNE3.2 kmh NNE 4.9 mph7.9 kmh 29.65 in1004.1 mb 0.00 in0.0 mm 0.00 in/hr0.0 mm/hr 0.00 in0.0 mm
07:33 AM 42.1°F5.6°C 40.8°F4.9°C 95% 0.9 mph N1.4 kmh N 2.9 mph4.7 kmh 29.65 in1004.1 mb 0.00 in0.0 mm 0.00 in/hr0.0 mm/hr 0.00 in0.0 mm
07:32 AM 42.1°F5.6°C 40.8°F4.9°C 95% 0.9 mph N1.4 kmh N 2.9 mph4.7 kmh 29.65 in1004.1 mb 0.00 in0.0 mm 0.00 in/hr0.0 mm/hr 0.00 in0.0 mm
07:31 AM 42.1°F5.6°C 40.8°F4.9°C 95% 0.9 mph NNE1.4 kmh NNE 2.0 mph3.2 kmh 29.65 in1004.1 mb 0.00 in0.0 mm 0.00 in/hr0.0 mm/hr 0.00 in0.0 mm
07:30 AM 41.9°F5.5°C 40.6°F4.8°C 95% 0.9 mph NNE1.4 kmh NNE 2.9 mph4.7 kmh 29.65 in1004.1 mb 0.00 in0.0 mm 0.00 in/hr0.0 mm/hr 0.00 in0.0 mm
07:29 AM 41.7°F5.4°C 40.5°F4.7°C 95% Calm Calm 2.0 mph3.2 kmh 29.65 in1004.1 mb 0.00 in0.0 mm 0.00 in/hr0.0 mm/hr 0.00 in0.0 mm
07:28 AM 41.7°F5.4°C 40.5°F4.7°C 95% Calm Calm 2.9 mph4.7 kmh 29.65 in1004.1 mb 0.00 in0.0 mm 0.00 in/hr0.0 mm/hr 0.00 in0.0 mm
07:27 AM 41.5°F5.3°C 40.3°F4.6°C 95% 0.9 mph NNE1.4 kmh NNE 2.9 mph4.7 kmh 29.65 in1004.1 mb 0.00 in0.0 mm 0.00 in/hr0.0 mm/hr 0.00 in0.0 mm
07:26 AM 41.5°F5.3°C 40.3°F4.6°C 95% Calm Calm 0.9 mph1.4 kmh 29.65 in1004.1 mb 0.00 in0.0 mm 0.00 in/hr0.0 mm/hr 0.00 in0.0 mm
07:25 AM 41.5°F5.3°C 40.3°F4.6°C 95% Calm Calm -- 29.65 in1004.1 mb 0.00 in0.0 mm 0.00 in/hr0.0 mm/hr 0.00 in0.0 mm
07:24 AM 41.4°F5.2°C 40.1°F4.5°C 95% Calm Calm 0.9 mph1.4 kmh 29.65 in1004.1 mb 0.00 in0.0 mm 0.00 in/hr0.0 mm/hr 0.00 in0.0 mm
07:23 AM 41.4°F5.2°C 40.1°F4.5°C 95% Calm Calm -- 29.65 in1004.1 mb 0.00 in0.0 mm 0.00 in/hr0.0 mm/hr 0.00 in0.0 mm
07:22 AM 41.4°F5.2°C 40.1°F4.5°C 95% Calm Calm 0.9 mph1.4 kmh 29.65 in1004.1 mb 0.00 in0.0 mm 0.00 in/hr0.0 mm/hr 0.00 in0.0 mm
07:21 AM 41.4°F5.2°C 40.1°F4.5°C 95% Calm Calm 0.9 mph1.4 kmh 29.65 in1004.1 mb 0.00 in0.0 mm 0.00 in/hr0.0 mm/hr 0.00 in0.0 mm
07:20 AM 41.2°F5.1°C 39.9°F4.4°C 95% 0.9 mph NE1.4 kmh NE 0.9 mph1.4 kmh 29.65 in1004.1 mb 0.00 in0.0 mm 0.00 in/hr0.0 mm/hr 0.00 in0.0 mm
07:19 AM 41.2°F5.1°C 39.6°F4.2°C 94% 0.9 mph NE1.4 kmh NE 2.9 mph4.7 kmh 29.65 in1004.1 mb 0.00 in0.0 mm 0.00 in/hr0.0 mm/hr 0.00 in0.0 mm
07:18 AM 41.2°F5.1°C 39.6°F4.2°C 94% 0.9 mph NW1.4 kmh NW 2.9 mph4.7 kmh 29.65 in1004.1 mb 0.00 in0.0 mm 0.00 in/hr0.0 mm/hr 0.00 in0.0 mm
07:17 AM 41.2°F5.1°C 39.6°F4.2°C 94% 0.9 mph NNW1.4 kmh NNW 2.0 mph3.2 kmh 29.65 in1004.1 mb 0.00 in0.0 mm 0.00 in/hr0.0 mm/hr 0.00 in0.0 mm
07:16 AM 41.2°F5.1°C 39.6°F4.2°C 94% 0.9 mph NW1.4 kmh NW 0.9 mph1.4 kmh 29.65 in1004.1 mb 0.00 in0.0 mm 0.00 in/hr0.0 mm/hr 0.00 in0.0 mm
07:15 AM 41.2°F5.1°C 39.6°F4.2°C 94% 2.0 mph NW3.2 kmh NW 0.9 mph1.4 kmh 29.65 in1004.1 mb 0.00 in0.0 mm 0.00 in/hr0.0 mm/hr 0.00 in0.0 mm
07:14 AM 41.2°F5.1°C 39.6°F4.2°C 94% 2.0 mph NW3.2 kmh NW 0.9 mph1.4 kmh 29.65 in1004.1 mb 0.00 in0.0 mm 0.00 in/hr0.0 mm/hr 0.00 in0.0 mm
07:13 AM 41.2°F5.1°C 39.4°F4.1°C 93% 2.0 mph NW3.2 kmh NW 0.9 mph1.4 kmh 29.65 in1004.1 mb 0.00 in0.0 mm 0.00 in/hr0.0 mm/hr 0.00 in0.0 mm
07:12 AM 41.2°F5.1°C 39.6°F4.2°C 94% 2.0 mph NW3.2 kmh NW 2.0 mph3.2 kmh 29.65 in1004.1 mb 0.00 in0.0 mm 0.00 in/hr0.0 mm/hr 0.00 in0.0 mm
07:11 AM 41.2°F5.1°C 39.6°F4.2°C 94% 2.0 mph NW3.2 kmh NW 2.0 mph3.2 kmh 29.65 in1004.1 mb 0.00 in0.0 mm 0.00 in/hr0.0 mm/hr 0.00 in0.0 mm
07:10 AM 41.2°F5.1°C 39.6°F4.2°C 94% 2.0 mph NW3.2 kmh NW 2.9 mph4.7 kmh 29.65 in1004.1 mb 0.00 in0.0 mm 0.00 in/hr0.0 mm/hr 0.00 in0.0 mm
07:09 AM 41.2°F5.1°C 39.4°F4.1°C 93% 2.0 mph NW3.2 kmh NW 2.9 mph4.7 kmh 29.65 in1004.1 mb 0.00 in0.0 mm 0.00 in/hr0.0 mm/hr 0.00 in0.0 mm
07:08 AM 41.2°F5.1°C 39.4°F4.1°C 93% 2.0 mph NW3.2 kmh NW 2.9 mph4.7 kmh 29.65 in1004.1 mb 0.00 in0.0 mm 0.00 in/hr0.0 mm/hr 0.00 in0.0 mm
07:07 AM 41.2°F5.1°C 39.4°F4.1°C 93% 2.0 mph NW3.2 kmh NW 4.0 mph6.4 kmh 29.65 in1004.1 mb 0.00 in0.0 mm 0.00 in/hr0.0 mm/hr 0.00 in0.0 mm
07:06 AM 41.4°F5.2°C 39.6°F4.2°C 93% 2.0 mph NW3.2 kmh NW 4.0 mph6.4 kmh 29.65 in1004.1 mb 0.00 in0.0 mm 0.00 in/hr0.0 mm/hr 0.00 in0.0 mm
07:05 AM 41.4°F5.2°C 39.6°F4.2°C 93% 0.9 mph NW1.4 kmh NW 4.0 mph6.4 kmh 29.65 in1004.1 mb 0.00 in0.0 mm 0.00 in/hr0.0 mm/hr 0.00 in0.0 mm
07:04 AM 41.4°F5.2°C 39.2°F4.0°C 92% 0.9 mph NW1.4 kmh NW 4.0 mph6.4 kmh 29.65 in1004.1 mb 0.00 in0.0 mm 0.00 in/hr0.0 mm/hr 0.00 in0.0 mm
07:03 AM 41.5°F5.3°C 39.4°F4.1°C 92% 0.9 mph NW1.4 kmh NW 2.0 mph3.2 kmh 29.65 in1004.1 mb 0.00 in0.0 mm 0.00 in/hr0.0 mm/hr 0.00 in0.0 mm
07:02 AM 41.5°F5.3°C 39.4°F4.1°C 92% 0.9 mph N1.4 kmh N 2.0 mph3.2 kmh 29.65 in1004.1 mb 0.00 in0.0 mm 0.00 in/hr0.0 mm/hr 0.00 in0.0 mm
07:01 AM 41.7°F5.4°C 39.6°F4.2°C 92% 0.9 mph NNW1.4 kmh NNW 2.0 mph3.2 kmh 29.65 in1004.1 mb 0.00 in0.0 mm 0.00 in/hr0.0 mm/hr 0.00 in0.0 mm
07:00 AM 41.9°F5.5°C 39.7°F4.3°C 92% Calm Calm 2.0 mph3.2 kmh 29.64 in1003.7 mb 0.00 in0.0 mm 0.00 in/hr0.0 mm/hr 0.00 in0.0 mm
06:59 AM 42.1°F5.6°C 39.9°F4.4°C 92% Calm Calm 0.9 mph1.4 kmh 29.64 in1003.7 mb 0.00 in0.0 mm 0.00 in/hr0.0 mm/hr 0.00 in0.0 mm
06:58 AM 42.1°F5.6°C 39.9°F4.4°C 92% Calm Calm -- 29.64 in1003.7 mb 0.00 in0.0 mm 0.00 in/hr0.0 mm/hr 0.00 in0.0 mm
06:57 AM 42.3°F5.7°C 40.1°F4.5°C 92% Calm Calm -- 29.64 in1003.7 mb 0.00 in0.0 mm 0.00 in/hr0.0 mm/hr 0.00 in0.0 mm
06:56 AM 42.3°F5.7°C 40.1°F4.5°C 92% Calm Calm -- 29.64 in1003.7 mb 0.00 in0.0 mm 0.00 in/hr0.0 mm/hr 0.00 in0.0 mm
06:55 AM 42.3°F5.7°C 40.1°F4.5°C 92% Calm Calm -- 29.64 in1003.7 mb 0.00 in0.0 mm 0.00 in/hr0.0 mm/hr 0.00 in0.0 mm
06:54 AM 42.4°F5.8°C 40.3°F4.6°C 92% Calm Calm 0.9 mph1.4 kmh 29.64 in1003.7 mb 0.00 in0.0 mm 0.00 in/hr0.0 mm/hr 0.00 in0.0 mm
06:53 AM 42.6°F5.9°C 40.5°F4.7°C 92% Calm Calm 2.0 mph3.2 kmh 29.64 in1003.7 mb 0.00 in0.0 mm 0.00 in/hr0.0 mm/hr 0.00 in0.0 mm
06:52 AM 42.6°F5.9°C 40.8°F4.9°C 93% Calm Calm 2.0 mph3.2 kmh 29.64 in1003.7 mb 0.00 in0.0 mm 0.00 in/hr0.0 mm/hr 0.00 in0.0 mm
06:51 AM 42.6°F5.9°C 40.8°F4.9°C 93% Calm Calm 2.0 mph3.2 kmh 29.64 in1003.7 mb 0.00 in0.0 mm 0.00 in/hr0.0 mm/hr 0.00 in0.0 mm
06:50 AM 42.8°F6.0°C 41.0°F5.0°C 93% Calm Calm 0.9 mph1.4 kmh 29.64 in1003.7 mb 0.00 in0.0 mm 0.00 in/hr0.0 mm/hr 0.00 in0.0 mm
06:49 AM 42.8°F6.0°C 41.0°F5.0°C 93% Calm Calm -- 29.64 in1003.7 mb 0.00 in0.0 mm 0.00 in/hr0.0 mm/hr 0.00 in0.0 mm
06:48 AM 42.8°F6.0°C 40.6°F4.8°C 92% 0.9 mph W1.4 kmh W -- 29.64 in1003.7 mb 0.00 in0.0 mm 0.00 in/hr0.0 mm/hr 0.00 in0.0 mm
06:47 AM 42.8°F6.0°C 40.6°F4.8°C 92% 0.9 mph W1.4 kmh W -- 29.64 in1003.7 mb 0.00 in0.0 mm 0.00 in/hr0.0 mm/hr 0.00 in0.0 mm
06:46 AM 43.0°F6.1°C 40.8°F4.9°C 92% 0.9 mph W1.4 kmh W -- 29.64 in1003.7 mb 0.00 in0.0 mm 0.00 in/hr0.0 mm/hr 0.00 in0.0 mm
06:45 AM 43.0°F6.1°C 40.8°F4.9°C 92% 0.9 mph W1.4 kmh W -- 29.63 in1003.4 mb 0.00 in0.0 mm 0.00 in/hr0.0 mm/hr 0.00 in0.0 mm
06:44 AM 43.2°F6.2°C 41.4°F5.2°C 93% 0.9 mph W1.4 kmh W -- 29.63 in1003.4 mb 0.00 in0.0 mm 0.00 in/hr0.0 mm/hr 0.00 in0.0 mm
06:43 AM 43.2°F6.2°C 41.4°F5.2°C 93% 0.9 mph W1.4 kmh W 2.0 mph3.2 kmh 29.63 in1003.4 mb 0.00 in0.0 mm 0.00 in/hr0.0 mm/hr 0.00 in0.0 mm
06:42 AM 43.2°F6.2°C 41.0°F5.0°C 92% 2.0 mph W3.2 kmh W 2.0 mph3.2 kmh 29.63 in1003.4 mb 0.00 in0.0 mm 0.00 in/hr0.0 mm/hr 0.00 in0.0 mm
06:41 AM 43.2°F6.2°C 41.0°F5.0°C 92% 2.0 mph W3.2 kmh W 0.9 mph1.4 kmh 29.63 in1003.4 mb 0.00 in0.0 mm 0.00 in/hr0.0 mm/hr 0.00 in0.0 mm
06:40 AM 43.2°F6.2°C 41.0°F5.0°C 92% 2.0 mph W3.2 kmh W 0.9 mph1.4 kmh 29.63 in1003.4 mb 0.00 in0.0 mm 0.00 in/hr0.0 mm/hr 0.00 in0.0 mm
06:39 AM 43.3°F6.3°C 41.2°F5.1°C 92% 2.0 mph W3.2 kmh W 2.9 mph4.7 kmh 29.63 in1003.4 mb 0.00 in0.0 mm 0.00 in/hr0.0 mm/hr 0.00 in0.0 mm
06:38 AM 43.3°F6.3°C 40.8°F4.9°C 91% 2.0 mph W3.2 kmh W 2.9 mph4.7 kmh 29.63 in1003.4 mb 0.00 in0.0 mm 0.00 in/hr0.0 mm/hr 0.00 in0.0 mm
06:37 AM 43.5°F6.4°C 41.0°F5.0°C 91% 2.0 mph NW3.2 kmh NW 0.9 mph1.4 kmh 29.63 in1003.4 mb 0.00 in0.0 mm 0.00 in/hr0.0 mm/hr 0.00 in0.0 mm
06:36 AM 43.7°F6.5°C 41.2°F5.1°C 91% 2.0 mph NNE3.2 kmh NNE 2.0 mph3.2 kmh 29.63 in1003.4 mb 0.00 in0.0 mm 0.00 in/hr0.0 mm/hr 0.00 in0.0 mm
06:35 AM 44.1°F6.7°C 41.5°F5.3°C 91% 2.0 mph N3.2 kmh N 2.9 mph4.7 kmh 29.63 in1003.4 mb 0.00 in0.0 mm 0.00 in/hr0.0 mm/hr 0.00 in0.0 mm
06:34 AM 44.2°F6.8°C 41.7°F5.4°C 91% 0.9 mph WNW1.4 kmh WNW 4.0 mph6.4 kmh 29.63 in1003.4 mb 0.00 in0.0 mm 0.00 in/hr0.0 mm/hr 0.00 in0.0 mm
06:33 AM 44.4°F6.9°C 41.9°F5.5°C 91% 0.9 mph WNW1.4 kmh WNW 4.9 mph7.9 kmh 29.63 in1003.4 mb 0.00 in0.0 mm 0.00 in/hr0.0 mm/hr 0.00 in0.0 mm
06:32 AM 44.4°F6.9°C 42.3°F5.7°C 92% 0.9 mph NW1.4 kmh NW 5.0 mph8.0 kmh 29.63 in1003.4 mb 0.00 in0.0 mm 0.00 in/hr0.0 mm/hr 0.00 in0.0 mm
06:31 AM 44.6°F7.0°C 42.6°F5.9°C 93% 0.9 mph W1.4 kmh W 2.0 mph3.2 kmh 29.63 in1003.4 mb 0.00 in0.0 mm 0.00 in/hr0.0 mm/hr 0.00 in0.0 mm
06:30 AM 44.4°F6.9°C 42.4°F5.8°C 93% 0.9 mph SSE1.4 kmh SSE 2.0 mph3.2 kmh 29.63 in1003.4 mb 0.00 in0.0 mm 0.00 in/hr0.0 mm/hr 0.00 in0.0 mm
06:29 AM 44.4°F6.9°C 42.4°F5.8°C 93% 0.9 mph SE1.4 kmh SE 0.9 mph1.4 kmh 29.63 in1003.4 mb 0.00 in0.0 mm 0.00 in/hr0.0 mm/hr 0.00 in0.0 mm
06:28 AM 44.4°F6.9°C 42.4°F5.8°C 93% 0.9 mph SE1.4 kmh SE 2.9 mph4.7 kmh 29.63 in1003.4 mb 0.00 in0.0 mm 0.00 in/hr0.0 mm/hr 0.00 in0.0 mm
06:27 AM 44.2°F6.8°C 42.3°F5.7°C 93% 0.9 mph SE1.4 kmh SE 2.9 mph4.7 kmh 29.63 in1003.4 mb 0.00 in0.0 mm 0.00 in/hr0.0 mm/hr 0.00 in0.0 mm
06:26 AM 44.2°F6.8°C 42.3°F5.7°C 93% 0.9 mph ESE1.4 kmh ESE 0.9 mph1.4 kmh 29.63 in1003.4 mb 0.00 in0.0 mm 0.00 in/hr0.0 mm/hr 0.00 in0.0 mm
06:25 AM 44.2°F6.8°C 42.3°F5.7°C 93% 0.9 mph SE1.4 kmh SE 0.9 mph1.4 kmh 29.63 in1003.4 mb 0.00 in0.0 mm 0.00 in/hr0.0 mm/hr 0.00 in0.0 mm
06:24 AM 44.2°F6.8°C 42.3°F5.7°C 93% 2.0 mph S3.2 kmh S 2.0 mph3.2 kmh 29.63 in1003.4 mb 0.00 in0.0 mm 0.00 in/hr0.0 mm/hr 0.00 in0.0 mm
06:23 AM 44.2°F6.8°C 42.3°F5.7°C 93% 2.0 mph SSE3.2 kmh SSE 2.0 mph3.2 kmh 29.63 in1003.4 mb 0.00 in0.0 mm 0.00 in/hr0.0 mm/hr 0.00 in0.0 mm
06:22 AM 44.2°F6.8°C 42.3°F5.7°C 93% 2.0 mph ESE3.2 kmh ESE 0.9 mph1.4 kmh 29.63 in1003.4 mb 0.00 in0.0 mm 0.00 in/hr0.0 mm/hr 0.00 in0.0 mm
06:21 AM 44.2°F6.8°C 42.1°F5.6°C 92% 2.0 mph E3.2 kmh E 2.9 mph4.7 kmh 29.63 in1003.4 mb 0.00 in0.0 mm 0.00 in/hr0.0 mm/hr 0.00 in0.0 mm
06:20 AM 44.1°F6.7°C 41.9°F5.5°C 92% 2.0 mph ESE3.2 kmh ESE 2.0 mph3.2 kmh 29.63 in1003.4 mb 0.00 in0.0 mm 0.00 in/hr0.0 mm/hr 0.00 in0.0 mm
06:19 AM 44.1°F6.7°C 41.9°F5.5°C 92% 2.0 mph ENE3.2 kmh ENE 2.0 mph3.2 kmh 29.63 in1003.4 mb 0.00 in0.0 mm 0.00 in/hr0.0 mm/hr 0.00 in0.0 mm
06:18 AM 44.1°F6.7°C 41.9°F5.5°C 92% 2.0 mph SSE3.2 kmh SSE 2.9 mph4.7 kmh 29.63 in1003.4 mb 0.00 in0.0 mm 0.00 in/hr0.0 mm/hr 0.00 in0.0 mm
06:17 AM 44.2°F6.8°C 42.1°F5.6°C 92% 0.9 mph SE1.4 kmh SE 4.9 mph7.9 kmh 29.63 in1003.4 mb 0.00 in0.0 mm 0.00 in/hr0.0 mm/hr 0.00 in0.0 mm
06:16 AM 44.1°F6.7°C 41.9°F5.5°C 92% 0.9 mph ESE1.4 kmh ESE 2.9 mph4.7 kmh 29.63 in1003.4 mb 0.00 in0.0 mm 0.00 in/hr0.0 mm/hr 0.00 in0.0 mm
06:15 AM 44.1°F6.7°C 42.1°F5.6°C 93% 0.9 mph SE1.4 kmh SE 4.9 mph7.9 kmh 29.62 in1003.0 mb 0.00 in0.0 mm 0.00 in/hr0.0 mm/hr 0.00 in0.0 mm
06:14 AM 44.1°F6.7°C 42.1°F5.6°C 93% 0.9 mph SE1.4 kmh SE 6.0 mph9.7 kmh 29.62 in1003.0 mb 0.00 in0.0 mm 0.00 in/hr0.0 mm/hr 0.00 in0.0 mm
06:13 AM 43.9°F6.6°C 41.7°F5.4°C 92% Calm Calm 6.0 mph9.7 kmh 29.62 in1003.0 mb 0.00 in0.0 mm 0.00 in/hr0.0 mm/hr 0.00 in0.0 mm
06:12 AM 43.9°F6.6°C 41.7°F5.4°C 92% Calm Calm 2.0 mph3.2 kmh 29.62 in1003.0 mb 0.00 in0.0 mm 0.00 in/hr0.0 mm/hr 0.00 in0.0 mm
06:11 AM 43.9°F6.6°C 41.7°F5.4°C 92% Calm Calm -- 29.62 in1003.0 mb 0.00 in0.0 mm 0.00 in/hr0.0 mm/hr 0.00 in0.0 mm
06:10 AM 43.9°F6.6°C 41.7°F5.4°C 92% Calm Calm 0.9 mph1.4 kmh 29.62 in1003.0 mb 0.00 in0.0 mm 0.00 in/hr0.0 mm/hr 0.00 in0.0 mm
06:09 AM 43.9°F6.6°C 41.9°F5.5°C 93% Calm Calm 2.0 mph3.2 kmh 29.62 in1003.0 mb 0.00 in0.0 mm 0.00 in/hr0.0 mm/hr 0.00 in0.0 mm
06:08 AM 43.9°F6.6°C 41.9°F5.5°C 93% Calm Calm 2.0 mph3.2 kmh 29.62 in1003.0 mb 0.00 in0.0 mm 0.00 in/hr0.0 mm/hr 0.00 in0.0 mm
06:07 AM 43.9°F6.6°C 41.9°F5.5°C 93% Calm Calm -- 29.62 in1003.0 mb 0.00 in0.0 mm 0.00 in/hr0.0 mm/hr 0.00 in0.0 mm
06:06 AM 43.9°F6.6°C 41.9°F5.5°C 93% Calm Calm -- 29.62 in1003.0 mb 0.00 in0.0 mm 0.00 in/hr0.0 mm/hr 0.00 in0.0 mm
06:05 AM 43.9°F6.6°C 41.9°F5.5°C 93% Calm Calm -- 29.62 in1003.0 mb 0.00 in0.0 mm 0.00 in/hr0.0 mm/hr 0.00 in0.0 mm
06:04 AM 43.9°F6.6°C 41.9°F5.5°C 93% Calm Calm 0.9 mph1.4 kmh 29.62 in1003.0 mb 0.00 in0.0 mm 0.00 in/hr0.0 mm/hr 0.00 in0.0 mm
06:03 AM 43.9°F6.6°C 41.9°F5.5°C 93% Calm Calm 0.9 mph1.4 kmh 29.62 in1003.0 mb 0.00 in0.0 mm 0.00 in/hr0.0 mm/hr 0.00 in0.0 mm
06:02 AM 43.9°F6.6°C 41.9°F5.5°C 93% Calm Calm 0.9 mph1.4 kmh 29.62 in1003.0 mb 0.00 in0.0 mm 0.00 in/hr0.0 mm/hr 0.00 in0.0 mm
06:01 AM 43.9°F6.6°C 41.9°F5.5°C 93% Calm Calm 0.9 mph1.4 kmh 29.62 in1003.0 mb 0.00 in0.0 mm 0.00 in/hr0.0 mm/hr 0.00 in0.0 mm
06:00 AM 43.7°F6.5°C 41.5°F5.3°C 92% Calm Calm 2.0 mph3.2 kmh 29.62 in1003.0 mb 0.00 in0.0 mm 0.00 in/hr0.0 mm/hr 0.00 in0.0 mm
05:59 AM 43.7°F6.5°C 41.5°F5.3°C 92% Calm Calm 0.9 mph1.4 kmh 29.62 in1003.0 mb 0.00 in0.0 mm 0.00 in/hr0.0 mm/hr 0.00 in0.0 mm
05:58 AM 43.7°F6.5°C 41.5°F5.3°C 92% Calm Calm 0.9 mph1.4 kmh 29.62 in1003.0 mb 0.00 in0.0 mm 0.00 in/hr0.0 mm/hr 0.00 in0.0 mm
05:57 AM 43.7°F6.5°C 41.5°F5.3°C 92% Calm Calm 0.9 mph1.4 kmh 29.62 in1003.0 mb 0.00 in0.0 mm 0.00 in/hr0.0 mm/hr 0.00 in0.0 mm
05:56 AM 43.9°F6.6°C 41.7°F5.4°C 92% Calm Calm 0.9 mph1.4 kmh 29.62 in1003.0 mb 0.00 in0.0 mm 0.00 in/hr0.0 mm/hr 0.00 in0.0 mm
05:55 AM 43.9°F6.6°C 41.7°F5.4°C 92% Calm Calm -- 29.62 in1003.0 mb 0.00 in0.0 mm 0.00 in/hr0.0 mm/hr 0.00 in0.0 mm
05:54 AM 43.9°F6.6°C 41.7°F5.4°C 92% Calm Calm 0.9 mph1.4 kmh 29.62 in1003.0 mb 0.00 in0.0 mm 0.00 in/hr0.0 mm/hr 0.00 in0.0 mm
05:53 AM 43.9°F6.6°C 41.7°F5.4°C 92% Calm Calm 0.9 mph1.4 kmh 29.62 in1003.0 mb 0.00 in0.0 mm 0.00 in/hr0.0 mm/hr 0.00 in0.0 mm
05:52 AM 43.9°F6.6°C 41.7°F5.4°C 92% Calm Calm 0.9 mph1.4 kmh 29.62 in1003.0 mb 0.00 in0.0 mm 0.00 in/hr0.0 mm/hr 0.00 in0.0 mm
05:51 AM 43.9°F6.6°C 41.7°F5.4°C 92% Calm Calm 0.9 mph1.4 kmh 29.62 in1003.0 mb 0.00 in0.0 mm 0.00 in/hr0.0 mm/hr 0.00 in0.0 mm
05:50 AM 43.9°F6.6°C 41.7°F5.4°C 92% Calm Calm 0.9 mph1.4 kmh 29.62 in1003.0 mb 0.00 in0.0 mm 0.00 in/hr0.0 mm/hr 0.00 in0.0 mm
05:49 AM 43.9°F6.6°C 41.7°F5.4°C 92% 0.9 mph E1.4 kmh E 0.9 mph1.4 kmh 29.62 in1003.0 mb 0.00 in0.0 mm 0.00 in/hr0.0 mm/hr 0.00 in0.0 mm
05:48 AM 44.1°F6.7°C 41.9°F5.5°C 92% 0.9 mph E1.4 kmh E 2.0 mph3.2 kmh 29.62 in1003.0 mb 0.00 in0.0 mm 0.00 in/hr0.0 mm/hr 0.00 in0.0 mm
05:47 AM 44.1°F6.7°C 41.9°F5.5°C 92% Calm Calm 2.0 mph3.2 kmh 29.62 in1003.0 mb 0.00 in0.0 mm 0.00 in/hr0.0 mm/hr 0.00 in0.0 mm
05:46 AM 44.1°F6.7°C 41.9°F5.5°C 92% 0.9 mph NNE1.4 kmh NNE 0.9 mph1.4 kmh 29.62 in1003.0 mb 0.00 in0.0 mm 0.00 in/hr0.0 mm/hr 0.00 in0.0 mm
05:45 AM 44.1°F6.7°C 41.9°F5.5°C 92% 0.9 mph NNE1.4 kmh NNE 0.9 mph1.4 kmh 29.62 in1003.0 mb 0.00 in0.0 mm 0.00 in/hr0.0 mm/hr 0.00 in0.0 mm
05:44 AM 44.1°F6.7°C 41.9°F5.5°C 92% 0.9 mph NNE1.4 kmh NNE -- 29.62 in1003.0 mb 0.00 in0.0 mm 0.00 in/hr0.0 mm/hr 0.00 in0.0 mm
05:43 AM 44.1°F6.7°C 41.9°F5.5°C 92% 0.9 mph NNE1.4 kmh NNE -- 29.62 in1003.0 mb 0.00 in0.0 mm 0.00 in/hr0.0 mm/hr 0.00 in0.0 mm
05:42 AM 44.2°F6.8°C 42.1°F5.6°C 92% 0.9 mph NNE1.4 kmh NNE 0.9 mph1.4 kmh 29.62 in1003.0 mb 0.00 in0.0 mm 0.00 in/hr0.0 mm/hr 0.00 in0.0 mm
05:41 AM 44.2°F6.8°C 42.1°F5.6°C 92% 0.9 mph NNE1.4 kmh NNE 2.0 mph3.2 kmh 29.62 in1003.0 mb 0.00 in0.0 mm 0.00 in/hr0.0 mm/hr 0.00 in0.0 mm
05:40 AM 44.2°F6.8°C 41.7°F5.4°C 91% 0.9 mph NNE1.4 kmh NNE 2.9 mph4.7 kmh 29.62 in1003.0 mb 0.00 in0.0 mm 0.00 in/hr0.0 mm/hr 0.00 in0.0 mm
05:39 AM 44.2°F6.8°C 41.7°F5.4°C 91% 0.9 mph NNE1.4 kmh NNE 2.9 mph4.7 kmh 29.62 in1003.0 mb 0.00 in0.0 mm 0.00 in/hr0.0 mm/hr 0.00 in0.0 mm
05:38 AM 44.4°F6.9°C 41.9°F5.5°C 91% 0.9 mph N1.4 kmh N 2.0 mph3.2 kmh 29.62 in1003.0 mb 0.00 in0.0 mm 0.00 in/hr0.0 mm/hr 0.00 in0.0 mm
05:37 AM 44.4°F6.9°C 41.9°F5.5°C 91% 0.9 mph NNE1.4 kmh NNE 0.9 mph1.4 kmh 29.62 in1003.0 mb 0.00 in0.0 mm 0.00 in/hr0.0 mm/hr 0.00 in0.0 mm
05:36 AM 44.4°F6.9°C 41.9°F5.5°C 91% 0.9 mph NNE1.4 kmh NNE 2.9 mph4.7 kmh 29.62 in1003.0 mb 0.00 in0.0 mm 0.00 in/hr0.0 mm/hr 0.00 in0.0 mm
05:35 AM 44.8°F7.1°C 42.1°F5.6°C 90% 0.9 mph NNE1.4 kmh NNE 2.9 mph4.7 kmh 29.62 in1003.0 mb 0.00 in0.0 mm 0.00 in/hr0.0 mm/hr 0.00 in0.0 mm
05:34 AM 45.0°F7.2°C 41.9°F5.5°C 89% 0.9 mph NW1.4 kmh NW 2.0 mph3.2 kmh 29.62 in1003.0 mb 0.00 in0.0 mm 0.00 in/hr0.0 mm/hr 0.00 in0.0 mm
05:33 AM 45.0°F7.2°C 41.5°F5.3°C 88% 0.9 mph NW1.4 kmh NW 2.0 mph3.2 kmh 29.62 in1003.0 mb 0.00 in0.0 mm 0.00 in/hr0.0 mm/hr 0.00 in0.0 mm
05:32 AM 45.3°F7.4°C 42.3°F5.7°C 89% 0.9 mph NE1.4 kmh NE 4.9 mph7.9 kmh 29.62 in1003.0 mb 0.00 in0.0 mm 0.00 in/hr0.0 mm/hr 0.00 in0.0 mm
05:31 AM 45.7°F7.6°C 43.0°F6.1°C 90% 0.9 mph WNW1.4 kmh WNW 6.0 mph9.7 kmh 29.62 in1003.0 mb 0.00 in0.0 mm 0.00 in/hr0.0 mm/hr 0.00 in0.0 mm
05:30 AM 45.7°F7.6°C 43.0°F6.1°C 90% 0.9 mph NW1.4 kmh NW 2.9 mph4.7 kmh 29.61 in1002.7 mb 0.00 in0.0 mm 0.00 in/hr0.0 mm/hr 0.00 in0.0 mm
05:29 AM 45.7°F7.6°C 43.0°F6.1°C 90% 0.9 mph ENE1.4 kmh ENE 2.0 mph3.2 kmh 29.61 in1002.7 mb 0.00 in0.0 mm 0.00 in/hr0.0 mm/hr 0.00 in0.0 mm
05:28 AM 45.7°F7.6°C 43.0°F6.1°C 90% 0.9 mph ENE1.4 kmh ENE 0.9 mph1.4 kmh 29.61 in1002.7 mb 0.00 in0.0 mm 0.00 in/hr0.0 mm/hr 0.00 in0.0 mm
05:27 AM 45.7°F7.6°C 43.0°F6.1°C 90% 0.9 mph ENE1.4 kmh ENE -- 29.61 in1002.7 mb 0.00 in0.0 mm 0.00 in/hr0.0 mm/hr 0.00 in0.0 mm
05:26 AM 45.7°F7.6°C 43.0°F6.1°C 90% 0.9 mph ENE1.4 kmh ENE -- 29.61 in1002.7 mb 0.00 in0.0 mm 0.00 in/hr0.0 mm/hr 0.00 in0.0 mm
05:25 AM 45.7°F7.6°C 43.0°F6.1°C 90% 0.9 mph ENE1.4 kmh ENE 2.9 mph4.7 kmh 29.61 in1002.7 mb 0.00 in0.0 mm 0.00 in/hr0.0 mm/hr 0.00 in0.0 mm
05:24 AM 45.7°F7.6°C 43.0°F6.1°C 90% 0.9 mph E1.4 kmh E 2.9 mph4.7 kmh 29.61 in1002.7 mb 0.00 in0.0 mm 0.00 in/hr0.0 mm/hr 0.00 in0.0 mm
05:23 AM 45.9°F7.7°C 42.8°F6.0°C 89% 0.9 mph N1.4 kmh N 0.9 mph1.4 kmh 29.61 in1002.7 mb 0.00 in0.0 mm 0.00 in/hr0.0 mm/hr 0.00 in0.0 mm
05:22 AM 45.9°F7.7°C 42.8°F6.0°C 89% 0.9 mph N1.4 kmh N 2.0 mph3.2 kmh 29.61 in1002.7 mb 0.00 in0.0 mm 0.00 in/hr0.0 mm/hr 0.00 in0.0 mm
05:21 AM 45.9°F7.7°C 42.8°F6.0°C 89% 0.9 mph N1.4 kmh N 2.0 mph3.2 kmh 29.61 in1002.7 mb 0.00 in0.0 mm 0.00 in/hr0.0 mm/hr 0.00 in0.0 mm
05:20 AM 45.9°F7.7°C 42.8°F6.0°C 89% 0.9 mph NW1.4 kmh NW 0.9 mph1.4 kmh 29.61 in1002.7 mb 0.00 in0.0 mm 0.00 in/hr0.0 mm/hr 0.00 in0.0 mm
05:19 AM 46.0°F7.8°C 42.6°F5.9°C 88% 0.9 mph NW1.4 kmh NW 0.9 mph1.4 kmh 29.61 in1002.7 mb 0.00 in0.0 mm 0.00 in/hr0.0 mm/hr 0.00 in0.0 mm
05:18 AM 46.0°F7.8°C 42.6°F5.9°C 88% 0.9 mph W1.4 kmh W 0.9 mph1.4 kmh 29.61 in1002.7 mb 0.00 in0.0 mm 0.00 in/hr0.0 mm/hr 0.00 in0.0 mm
05:17 AM 46.0°F7.8°C 42.6°F5.9°C 88% 0.9 mph E1.4 kmh E 0.9 mph1.4 kmh 29.61 in1002.7 mb 0.00 in0.0 mm 0.00 in/hr0.0 mm/hr 0.00 in0.0 mm
05:16 AM 46.0°F7.8°C 42.6°F5.9°C 88% 0.9 mph E1.4 kmh E 2.9 mph4.7 kmh 29.61 in1002.7 mb 0.00 in0.0 mm 0.00 in/hr0.0 mm/hr 0.00 in0.0 mm
05:15 AM 46.2°F7.9°C 42.8°F6.0°C 88% 0.9 mph E1.4 kmh E 2.0 mph3.2 kmh 29.62 in1003.0 mb 0.00 in0.0 mm 0.00 in/hr0.0 mm/hr 0.00 in0.0 mm
05:14 AM 46.2°F7.9°C 42.8°F6.0°C 88% 0.9 mph ESE1.4 kmh ESE 6.0 mph9.7 kmh 29.62 in1003.0 mb 0.00 in0.0 mm 0.00 in/hr0.0 mm/hr 0.00 in0.0 mm
05:13 AM 46.2°F7.9°C 42.8°F6.0°C 88% 2.0 mph SE3.2 kmh SE 2.0 mph3.2 kmh 29.62 in1003.0 mb 0.00 in0.0 mm 0.00 in/hr0.0 mm/hr 0.00 in0.0 mm
05:12 AM 46.2°F7.9°C 42.8°F6.0°C 88% 2.0 mph SE3.2 kmh SE 2.0 mph3.2 kmh 29.62 in1003.0 mb 0.00 in0.0 mm 0.00 in/hr0.0 mm/hr 0.00 in0.0 mm
05:11 AM 46.4°F8.0°C 43.0°F6.1°C 88% 2.0 mph SE3.2 kmh SE 2.0 mph3.2 kmh 29.62 in1003.0 mb 0.00 in0.0 mm 0.00 in/hr0.0 mm/hr 0.00 in0.0 mm
05:10 AM 46.4°F8.0°C 43.0°F6.1°C 88% 2.0 mph E3.2 kmh E 2.9 mph4.7 kmh 29.62 in1003.0 mb 0.00 in0.0 mm 0.00 in/hr0.0 mm/hr 0.00 in0.0 mm
05:09 AM 46.6°F8.1°C 43.2°F6.2°C 88% 2.0 mph ENE3.2 kmh ENE 2.0 mph3.2 kmh 29.62 in1003.0 mb 0.00 in0.0 mm 0.00 in/hr0.0 mm/hr 0.00 in0.0 mm
05:08 AM 46.6°F8.1°C 43.2°F6.2°C 88% 2.0 mph SE3.2 kmh SE 4.9 mph7.9 kmh 29.62 in1003.0 mb 0.00 in0.0 mm 0.00 in/hr0.0 mm/hr 0.00 in0.0 mm
05:07 AM 46.6°F8.1°C 43.2°F6.2°C 88% 2.0 mph SE3.2 kmh SE 2.9 mph4.7 kmh 29.62 in1003.0 mb 0.00 in0.0 mm 0.00 in/hr0.0 mm/hr 0.00 in0.0 mm
05:06 AM 46.6°F8.1°C 43.2°F6.2°C 88% 2.0 mph SE3.2 kmh SE 4.0 mph6.4 kmh 29.62 in1003.0 mb 0.00 in0.0 mm 0.00 in/hr0.0 mm/hr 0.00 in0.0 mm
05:05 AM 46.6°F8.1°C 43.2°F6.2°C 88% 2.0 mph ESE3.2 kmh ESE 4.0 mph6.4 kmh 29.62 in1003.0 mb 0.00 in0.0 mm 0.00 in/hr0.0 mm/hr 0.00 in0.0 mm
05:04 AM 46.8°F8.2°C 43.3°F6.3°C 88% 2.0 mph ESE3.2 kmh ESE 6.0 mph9.7 kmh 29.62 in1003.0 mb 0.00 in0.0 mm 0.00 in/hr0.0 mm/hr 0.00 in0.0 mm
05:03 AM 46.8°F8.2°C 43.7°F6.5°C 89% 0.9 mph SE1.4 kmh SE 4.0 mph6.4 kmh 29.62 in1003.0 mb 0.00 in0.0 mm 0.00 in/hr0.0 mm/hr 0.00 in0.0 mm
05:02 AM 46.8°F8.2°C 43.7°F6.5°C 89% 0.9 mph ESE1.4 kmh ESE 4.0 mph6.4 kmh 29.62 in1003.0 mb 0.00 in0.0 mm 0.00 in/hr0.0 mm/hr 0.00 in0.0 mm
05:01 AM 46.8°F8.2°C 43.7°F6.5°C 89% 0.9 mph E1.4 kmh E 2.9 mph4.7 kmh 29.62 in1003.0 mb 0.00 in0.0 mm 0.00 in/hr0.0 mm/hr 0.00 in0.0 mm
05:00 AM 46.8°F8.2°C 44.1°F6.7°C 90% 0.9 mph SE1.4 kmh SE 2.9 mph4.7 kmh 29.61 in1002.7 mb 0.00 in0.0 mm 0.00 in/hr0.0 mm/hr 0.00 in0.0 mm
04:59 AM 46.9°F8.3°C 44.4°F6.9°C 91% 0.9 mph ESE1.4 kmh ESE 2.9 mph4.7 kmh 29.61 in1002.7 mb 0.00 in0.0 mm 0.00 in/hr0.0 mm/hr 0.00 in0.0 mm
04:58 AM 46.9°F8.3°C 44.8°F7.1°C 92% 0.9 mph S1.4 kmh S 2.0 mph3.2 kmh 29.61 in1002.7 mb 0.00 in0.0 mm 0.00 in/hr0.0 mm/hr 0.00 in0.0 mm
04:57 AM 46.9°F8.3°C 44.8°F7.1°C 92% 0.9 mph SE1.4 kmh SE 4.0 mph6.4 kmh 29.61 in1002.7 mb 0.00 in0.0 mm 0.00 in/hr0.0 mm/hr 0.00 in0.0 mm
04:56 AM 46.9°F8.3°C 44.8°F7.1°C 92% 0.9 mph SSE1.4 kmh SSE 2.9 mph4.7 kmh 29.61 in1002.7 mb 0.00 in0.0 mm 0.00 in/hr0.0 mm/hr 0.00 in0.0 mm
04:55 AM 46.9°F8.3°C 44.8°F7.1°C 92% 0.9 mph E1.4 kmh E 2.0 mph3.2 kmh 29.61 in1002.7 mb 0.00 in0.0 mm 0.00 in/hr0.0 mm/hr 0.00 in0.0 mm
04:54 AM 46.9°F8.3°C 44.8°F7.1°C 92% 0.9 mph SE1.4 kmh SE 0.9 mph1.4 kmh 29.61 in1002.7 mb 0.00 in0.0 mm 0.00 in/hr0.0 mm/hr 0.00 in0.0 mm
04:53 AM 46.9°F8.3°C 44.8°F7.1°C 92% 0.9 mph SE1.4 kmh SE 2.9 mph4.7 kmh 29.61 in1002.7 mb 0.00 in0.0 mm 0.00 in/hr0.0 mm/hr 0.00 in0.0 mm
04:52 AM 46.9°F8.3°C 44.8°F7.1°C 92% 0.9 mph SE1.4 kmh SE 2.9 mph4.7 kmh 29.61 in1002.7 mb 0.00 in0.0 mm 0.00 in/hr0.0 mm/hr 0.00 in0.0 mm
04:51 AM 46.9°F8.3°C 44.8°F7.1°C 92% 0.9 mph SE1.4 kmh SE 2.0 mph3.2 kmh 29.61 in1002.7 mb 0.00 in0.0 mm 0.00 in/hr0.0 mm/hr 0.00 in0.0 mm
04:50 AM 46.9°F8.3°C 44.8°F7.1°C 92% 0.9 mph SSE1.4 kmh SSE 2.0 mph3.2 kmh 29.61 in1002.7 mb 0.00 in0.0 mm 0.00 in/hr0.0 mm/hr 0.00 in0.0 mm
04:49 AM 46.8°F8.2°C 44.6°F7.0°C 92% 0.9 mph ESE1.4 kmh ESE 0.9 mph1.4 kmh 29.61 in1002.7 mb 0.00 in0.0 mm 0.00 in/hr0.0 mm/hr 0.00 in0.0 mm
04:48 AM 46.8°F8.2°C 44.6°F7.0°C 92% 0.9 mph SE1.4 kmh SE 2.9 mph4.7 kmh 29.61 in1002.7 mb 0.00 in0.0 mm 0.00 in/hr0.0 mm/hr 0.00 in0.0 mm
04:47 AM 46.8°F8.2°C 44.6°F7.0°C 92% 0.9 mph ESE1.4 kmh ESE 0.9 mph1.4 kmh 29.61 in1002.7 mb 0.00 in0.0 mm 0.00 in/hr0.0 mm/hr 0.00 in0.0 mm
04:46 AM 46.8°F8.2°C 44.2°F6.8°C 91% 0.9 mph ESE1.4 kmh ESE 2.0 mph3.2 kmh 29.61 in1002.7 mb 0.00 in0.0 mm 0.00 in/hr0.0 mm/hr 0.00 in0.0 mm
04:45 AM 46.8°F8.2°C 44.2°F6.8°C 91% 0.9 mph SE1.4 kmh SE 2.9 mph4.7 kmh 29.62 in1003.0 mb 0.00 in0.0 mm 0.00 in/hr0.0 mm/hr 0.00 in0.0 mm
04:44 AM 46.8°F8.2°C 44.2°F6.8°C 91% 0.9 mph ESE1.4 kmh ESE 2.9 mph4.7 kmh 29.62 in1003.0 mb 0.00 in0.0 mm 0.00 in/hr0.0 mm/hr 0.00 in0.0 mm
04:43 AM 46.8°F8.2°C 44.2°F6.8°C 91% 0.9 mph ESE1.4 kmh ESE 0.9 mph1.4 kmh 29.62 in1003.0 mb 0.00 in0.0 mm 0.00 in/hr0.0 mm/hr 0.00 in0.0 mm
04:42 AM 46.8°F8.2°C 44.2°F6.8°C 91% 0.9 mph E1.4 kmh E 0.9 mph1.4 kmh 29.62 in1003.0 mb 0.00 in0.0 mm 0.00 in/hr0.0 mm/hr 0.00 in0.0 mm
04:41 AM 46.8°F8.2°C 44.2°F6.8°C 91% 0.9 mph E1.4 kmh E 0.9 mph1.4 kmh 29.62 in1003.0 mb 0.00 in0.0 mm 0.00 in/hr0.0 mm/hr 0.00 in0.0 mm
04:40 AM 46.8°F8.2°C 44.2°F6.8°C 91% 0.9 mph E1.4 kmh E 0.9 mph1.4 kmh 29.62 in1003.0 mb 0.00 in0.0 mm 0.00 in/hr0.0 mm/hr 0.00 in0.0 mm
04:39 AM 46.6°F8.1°C 44.1°F6.7°C 91% 0.9 mph E1.4 kmh E 2.0 mph3.2 kmh 29.62 in1003.0 mb 0.00 in0.0 mm 0.00 in/hr0.0 mm/hr 0.00 in0.0 mm
04:38 AM 46.6°F8.1°C 44.1°F6.7°C 91% 0.9 mph E1.4 kmh E 2.0 mph3.2 kmh 29.62 in1003.0 mb 0.00 in0.0 mm 0.00 in/hr0.0 mm/hr 0.00 in0.0 mm
04:37 AM 46.6°F8.1°C 44.1°F6.7°C 91% 0.9 mph ENE1.4 kmh ENE 0.9 mph1.4 kmh 29.62 in1003.0 mb 0.00 in0.0 mm 0.00 in/hr0.0 mm/hr 0.00 in0.0 mm
04:36 AM 46.6°F8.1°C 44.1°F6.7°C 91% 0.9 mph E1.4 kmh E 4.0 mph6.4 kmh 29.62 in1003.0 mb 0.00 in0.0 mm 0.00 in/hr0.0 mm/hr 0.00 in0.0 mm
04:35 AM 46.4°F8.0°C 43.9°F6.6°C 91% 0.9 mph NE1.4 kmh NE 4.0 mph6.4 kmh 29.62 in1003.0 mb 0.00 in0.0 mm 0.00 in/hr0.0 mm/hr 0.00 in0.0 mm
04:34 AM 46.4°F8.0°C 43.9°F6.6°C 91% 0.9 mph ESE1.4 kmh ESE 4.0 mph6.4 kmh 29.62 in1003.0 mb 0.00 in0.0 mm 0.00 in/hr0.0 mm/hr 0.00 in0.0 mm
04:33 AM 46.4°F8.0°C 43.9°F6.6°C 91% 2.0 mph SSW3.2 kmh SSW 0.9 mph1.4 kmh 29.62 in1003.0 mb 0.00 in0.0 mm 0.00 in/hr0.0 mm/hr 0.00 in0.0 mm
04:32 AM 46.4°F8.0°C 43.9°F6.6°C 91% 2.0 mph SE3.2 kmh SE 2.0 mph3.2 kmh 29.62 in1003.0 mb 0.00 in0.0 mm 0.00 in/hr0.0 mm/hr 0.00 in0.0 mm
04:31 AM 46.4°F8.0°C 43.9°F6.6°C 91% 2.0 mph SSE3.2 kmh SSE 2.9 mph4.7 kmh 29.62 in1003.0 mb 0.00 in0.0 mm 0.00 in/hr0.0 mm/hr 0.00 in0.0 mm
04:30 AM 46.2°F7.9°C 43.5°F6.4°C 90% 0.9 mph ESE1.4 kmh ESE 2.9 mph4.7 kmh 29.62 in1003.0 mb 0.00 in0.0 mm 0.00 in/hr0.0 mm/hr 0.00 in0.0 mm
04:29 AM 46.2°F7.9°C 43.5°F6.4°C 90% 0.9 mph SSE1.4 kmh SSE 2.9 mph4.7 kmh 29.62 in1003.0 mb 0.00 in0.0 mm 0.00 in/hr0.0 mm/hr 0.00 in0.0 mm
04:28 AM 46.2°F7.9°C 43.5°F6.4°C 90% 0.9 mph ESE1.4 kmh ESE 2.9 mph4.7 kmh 29.62 in1003.0 mb 0.00 in0.0 mm 0.00 in/hr0.0 mm/hr 0.00 in0.0 mm
04:27 AM 46.2°F7.9°C 43.5°F6.4°C 90% 2.0 mph SE3.2 kmh SE 2.9 mph4.7 kmh 29.62 in1003.0 mb 0.00 in0.0 mm 0.00 in/hr0.0 mm/hr 0.00 in0.0 mm
04:26 AM 46.2°F7.9°C 43.5°F6.4°C 90% 2.0 mph SE3.2 kmh SE 2.9 mph4.7 kmh 29.62 in1003.0 mb 0.00 in0.0 mm 0.00 in/hr0.0 mm/hr 0.00 in0.0 mm
04:25 AM 46.2°F7.9°C 43.5°F6.4°C 90% 0.9 mph SW1.4 kmh SW 7.0 mph11.3 kmh 29.62 in1003.0 mb 0.00 in0.0 mm 0.00 in/hr0.0 mm/hr 0.00 in0.0 mm
04:24 AM 46.2°F7.9°C 43.5°F6.4°C 90% 0.9 mph SE1.4 kmh SE 7.0 mph11.3 kmh 29.62 in1003.0 mb 0.00 in0.0 mm 0.00 in/hr0.0 mm/hr 0.00 in0.0 mm
04:23 AM 46.2°F7.9°C 43.5°F6.4°C 90% 0.9 mph SE1.4 kmh SE 4.0 mph6.4 kmh 29.62 in1003.0 mb 0.00 in0.0 mm 0.00 in/hr0.0 mm/hr 0.00 in0.0 mm
04:22 AM 46.2°F7.9°C 43.5°F6.4°C 90% 0.9 mph SE1.4 kmh SE 2.0 mph3.2 kmh 29.62 in1003.0 mb 0.00 in0.0 mm 0.00 in/hr0.0 mm/hr 0.00 in0.0 mm
04:21 AM 46.2°F7.9°C 43.5°F6.4°C 90% 0.9 mph SSW1.4 kmh SSW 2.0 mph3.2 kmh 29.62 in1003.0 mb 0.00 in0.0 mm 0.00 in/hr0.0 mm/hr 0.00 in0.0 mm
04:20 AM 46.2°F7.9°C 43.5°F6.4°C 90% 0.9 mph NE1.4 kmh NE 2.9 mph4.7 kmh 29.62 in1003.0 mb 0.00 in0.0 mm 0.00 in/hr0.0 mm/hr 0.00 in0.0 mm
04:19 AM 46.2°F7.9°C 43.5°F6.4°C 90% 0.9 mph SE1.4 kmh SE 2.9 mph4.7 kmh 29.62 in1003.0 mb 0.00 in0.0 mm 0.00 in/hr0.0 mm/hr 0.00 in0.0 mm
04:18 AM 46.2°F7.9°C 43.5°F6.4°C 90% 0.9 mph ESE1.4 kmh ESE 2.0 mph3.2 kmh 29.62 in1003.0 mb 0.00 in0.0 mm 0.00 in/hr0.0 mm/hr 0.00 in0.0 mm
04:17 AM 46.2°F7.9°C 43.5°F6.4°C 90% 0.9 mph SE1.4 kmh SE 2.0 mph3.2 kmh 29.62 in1003.0 mb 0.00 in0.0 mm 0.00 in/hr0.0 mm/hr 0.00 in0.0 mm
04:16 AM 46.2°F7.9°C 43.5°F6.4°C 90% 0.9 mph SE1.4 kmh SE 2.0 mph3.2 kmh 29.62 in1003.0 mb 0.00 in0.0 mm 0.00 in/hr0.0 mm/hr 0.00 in0.0 mm
04:15 AM 46.2°F7.9°C 43.5°F6.4°C 90% 0.9 mph SSE1.4 kmh SSE 0.9 mph1.4 kmh 29.62 in1003.0 mb 0.00 in0.0 mm 0.00 in/hr0.0 mm/hr 0.00 in0.0 mm
04:14 AM 46.2°F7.9°C 43.5°F6.4°C 90% 2.0 mph ESE3.2 kmh ESE 0.9 mph1.4 kmh 29.62 in1003.0 mb 0.00 in0.0 mm 0.00 in/hr0.0 mm/hr 0.00 in0.0 mm
04:13 AM 46.4°F8.0°C 43.7°F6.5°C 90% 2.0 mph ENE3.2 kmh ENE 2.0 mph3.2 kmh 29.62 in1003.0 mb 0.00 in0.0 mm 0.00 in/hr0.0 mm/hr 0.00 in0.0 mm
04:12 AM 46.4°F8.0°C 43.7°F6.5°C 90% 2.0 mph E3.2 kmh E 2.0 mph3.2 kmh 29.62 in1003.0 mb 0.00 in0.0 mm 0.00 in/hr0.0 mm/hr 0.00 in0.0 mm
04:11 AM 46.4°F8.0°C 43.7°F6.5°C 90% 2.0 mph SE3.2 kmh SE 2.0 mph3.2 kmh 29.62 in1003.0 mb 0.00 in0.0 mm 0.00 in/hr0.0 mm/hr 0.00 in0.0 mm
04:10 AM 46.4°F8.0°C 43.7°F6.5°C 90% 2.0 mph SE3.2 kmh SE 2.9 mph4.7 kmh 29.62 in1003.0 mb 0.00 in0.0 mm 0.00 in/hr0.0 mm/hr 0.00 in0.0 mm
04:09 AM 46.4°F8.0°C 43.7°F6.5°C 90% 2.0 mph SE3.2 kmh SE 2.9 mph4.7 kmh 29.62 in1003.0 mb 0.00 in0.0 mm 0.00 in/hr0.0 mm/hr 0.00 in0.0 mm
04:08 AM 46.4°F8.0°C 43.7°F6.5°C 90% 2.0 mph SE3.2 kmh SE 4.0 mph6.4 kmh 29.62 in1003.0 mb 0.00 in0.0 mm 0.00 in/hr0.0 mm/hr 0.00 in0.0 mm
04:07 AM 46.4°F8.0°C 43.7°F6.5°C 90% 2.0 mph E3.2 kmh E 4.9 mph7.9 kmh 29.62 in1003.0 mb 0.00 in0.0 mm 0.00 in/hr0.0 mm/hr 0.00 in0.0 mm
04:06 AM 46.4°F8.0°C 43.7°F6.5°C 90% 2.0 mph SE3.2 kmh SE 4.9 mph7.9 kmh 29.62 in1003.0 mb 0.00 in0.0 mm 0.00 in/hr0.0 mm/hr 0.00 in0.0 mm
04:05 AM 46.6°F8.1°C 44.1°F6.7°C 91% 2.0 mph SSE3.2 kmh SSE 2.9 mph4.7 kmh 29.62 in1003.0 mb 0.00 in0.0 mm 0.00 in/hr0.0 mm/hr 0.00 in0.0 mm
04:04 AM 46.4°F8.0°C 43.9°F6.6°C 91% 0.9 mph ESE1.4 kmh ESE 2.9 mph4.7 kmh 29.62 in1003.0 mb 0.00 in0.0 mm 0.00 in/hr0.0 mm/hr 0.00 in0.0 mm
04:03 AM 46.6°F8.1°C 44.1°F6.7°C 91% 2.0 mph SE3.2 kmh SE 2.9 mph4.7 kmh 29.62 in1003.0 mb 0.00 in0.0 mm 0.00 in/hr0.0 mm/hr 0.00 in0.0 mm
04:02 AM 46.4°F8.0°C 43.9°F6.6°C 91% 2.0 mph ESE3.2 kmh ESE 2.0 mph3.2 kmh 29.62 in1003.0 mb 0.00 in0.0 mm 0.00 in/hr0.0 mm/hr 0.00 in0.0 mm
04:01 AM 46.6°F8.1°C 43.9°F6.6°C 90% 2.0 mph ESE3.2 kmh ESE 2.0 mph3.2 kmh 29.62 in1003.0 mb 0.00 in0.0 mm 0.00 in/hr0.0 mm/hr 0.00 in0.0 mm
04:00 AM 46.4°F8.0°C 43.7°F6.5°C 90% 2.0 mph ESE3.2 kmh ESE 2.9 mph4.7 kmh 29.62 in1003.0 mb 0.00 in0.0 mm 0.00 in/hr0.0 mm/hr 0.00 in0.0 mm
03:59 AM 46.4°F8.0°C 43.7°F6.5°C 90% 2.0 mph SE3.2 kmh SE 2.0 mph3.2 kmh 29.62 in1003.0 mb 0.00 in0.0 mm 0.00 in/hr0.0 mm/hr 0.00 in0.0 mm
03:58 AM 46.4°F8.0°C 43.7°F6.5°C 90% 2.0 mph E3.2 kmh E 4.9 mph7.9 kmh 29.62 in1003.0 mb 0.00 in0.0 mm 0.00 in/hr0.0 mm/hr 0.00 in0.0 mm
03:57 AM 46.4°F8.0°C 43.7°F6.5°C 90% 2.0 mph SE3.2 kmh SE 4.9 mph7.9 kmh 29.62 in1003.0 mb 0.00 in0.0 mm 0.00 in/hr0.0 mm/hr 0.00 in0.0 mm
03:56 AM 46.4°F8.0°C 43.7°F6.5°C 90% 2.0 mph ESE3.2 kmh ESE 2.9 mph4.7 kmh 29.62 in1003.0 mb 0.00 in0.0 mm 0.00 in/hr0.0 mm/hr 0.00 in0.0 mm
03:55 AM 46.4°F8.0°C 43.7°F6.5°C 90% 2.0 mph SSE3.2 kmh SSE 2.0 mph3.2 kmh 29.62 in1003.0 mb 0.00 in0.0 mm 0.00 in/hr0.0 mm/hr 0.00 in0.0 mm
03:54 AM 46.4°F8.0°C 43.7°F6.5°C 90% 2.0 mph SE3.2 kmh SE 2.9 mph4.7 kmh 29.62 in1003.0 mb 0.00 in0.0 mm 0.00 in/hr0.0 mm/hr 0.00 in0.0 mm
03:53 AM 46.2°F7.9°C 43.5°F6.4°C 90% 2.0 mph SE3.2 kmh SE 2.9 mph4.7 kmh 29.62 in1003.0 mb 0.00 in0.0 mm 0.00 in/hr0.0 mm/hr 0.00 in0.0 mm
03:52 AM 46.2°F7.9°C 43.5°F6.4°C 90% 2.0 mph SE3.2 kmh SE 4.9 mph7.9 kmh 29.62 in1003.0 mb 0.00 in0.0 mm 0.00 in/hr0.0 mm/hr 0.00 in0.0 mm
03:51 AM 46.0°F7.8°C 43.3°F6.3°C 90% 2.0 mph E3.2 kmh E 8.1 mph13.0 kmh 29.62 in1003.0 mb 0.00 in0.0 mm 0.00 in/hr0.0 mm/hr 0.00 in0.0 mm
03:50 AM 46.0°F7.8°C 43.3°F6.3°C 90% 2.0 mph SSW3.2 kmh SSW 2.9 mph4.7 kmh 29.62 in1003.0 mb 0.00 in0.0 mm 0.00 in/hr0.0 mm/hr 0.00 in0.0 mm
03:49 AM 46.0°F7.8°C 43.3°F6.3°C 90% 2.0 mph SE3.2 kmh SE 2.9 mph4.7 kmh 29.62 in1003.0 mb 0.00 in0.0 mm 0.00 in/hr0.0 mm/hr 0.00 in0.0 mm
03:48 AM 46.0°F7.8°C 43.3°F6.3°C 90% 2.0 mph SE3.2 kmh SE 2.9 mph4.7 kmh 29.62 in1003.0 mb 0.00 in0.0 mm 0.00 in/hr0.0 mm/hr 0.00 in0.0 mm
03:47 AM 46.0°F7.8°C 43.3°F6.3°C 90% 2.0 mph ESE3.2 kmh ESE 2.9 mph4.7 kmh 29.62 in1003.0 mb 0.00 in0.0 mm 0.00 in/hr0.0 mm/hr 0.00 in0.0 mm
03:46 AM 45.9°F7.7°C 43.2°F6.2°C 90% 0.9 mph SE1.4 kmh SE 2.9 mph4.7 kmh 29.62 in1003.0 mb 0.00 in0.0 mm 0.00 in/hr0.0 mm/hr 0.00 in0.0 mm
03:45 AM 45.9°F7.7°C 43.2°F6.2°C 90% 0.9 mph SE1.4 kmh SE 2.0 mph3.2 kmh 29.62 in1003.0 mb 0.00 in0.0 mm 0.00 in/hr0.0 mm/hr 0.00 in0.0 mm
03:44 AM 45.9°F7.7°C 43.2°F6.2°C 90% 0.9 mph E1.4 kmh E 2.9 mph4.7 kmh 29.62 in1003.0 mb 0.00 in0.0 mm 0.00 in/hr0.0 mm/hr 0.00 in0.0 mm
03:43 AM 45.9°F7.7°C 43.2°F6.2°C 90% 0.9 mph SE1.4 kmh SE 2.9 mph4.7 kmh 29.62 in1003.0 mb 0.00 in0.0 mm 0.00 in/hr0.0 mm/hr 0.00 in0.0 mm
03:42 AM 45.9°F7.7°C 43.2°F6.2°C 90% 0.9 mph SE1.4 kmh SE 2.0 mph3.2 kmh 29.62 in1003.0 mb 0.00 in0.0 mm 0.00 in/hr0.0 mm/hr 0.00 in0.0 mm
03:41 AM 45.7°F7.6°C 43.0°F6.1°C 90% 0.9 mph SE1.4 kmh SE 4.9 mph7.9 kmh 29.62 in1003.0 mb 0.00 in0.0 mm 0.00 in/hr0.0 mm/hr 0.00 in0.0 mm
03:40 AM 45.7°F7.6°C 43.0°F6.1°C 90% 0.9 mph SE1.4 kmh SE 6.0 mph9.7 kmh 29.62 in1003.0 mb 0.00 in0.0 mm 0.00 in/hr0.0 mm/hr 0.00 in0.0 mm
03:39 AM 45.7°F7.6°C 43.0°F6.1°C 90% Calm Calm 2.9 mph4.7 kmh 29.62 in1003.0 mb 0.00 in0.0 mm 0.00 in/hr0.0 mm/hr 0.00 in0.0 mm
03:38 AM 45.7°F7.6°C 43.0°F6.1°C 90% Calm Calm 2.9 mph4.7 kmh 29.62 in1003.0 mb 0.00 in0.0 mm 0.00 in/hr0.0 mm/hr 0.00 in0.0 mm
03:37 AM 45.7°F7.6°C 43.0°F6.1°C 90% Calm Calm 4.0 mph6.4 kmh 29.62 in1003.0 mb 0.00 in0.0 mm 0.00 in/hr0.0 mm/hr 0.00 in0.0 mm
03:36 AM 45.7°F7.6°C 43.0°F6.1°C 90% Calm Calm 4.0 mph6.4 kmh 29.62 in1003.0 mb 0.00 in0.0 mm 0.00 in/hr0.0 mm/hr 0.00 in0.0 mm
03:35 AM 45.7°F7.6°C 43.0°F6.1°C 90% Calm Calm -- 29.62 in1003.0 mb 0.00 in0.0 mm 0.00 in/hr0.0 mm/hr 0.00 in0.0 mm
03:34 AM 45.7°F7.6°C 43.0°F6.1°C 90% Calm Calm 0.9 mph1.4 kmh 29.62 in1003.0 mb 0.00 in0.0 mm 0.00 in/hr0.0 mm/hr 0.00 in0.0 mm
03:33 AM 45.7°F7.6°C 43.0°F6.1°C 90% Calm Calm -- 29.62 in1003.0 mb 0.00 in0.0 mm 0.00 in/hr0.0 mm/hr 0.00 in0.0 mm
03:32 AM 45.7°F7.6°C 43.0°F6.1°C 90% Calm Calm 0.9 mph1.4 kmh 29.62 in1003.0 mb 0.00 in0.0 mm 0.00 in/hr0.0 mm/hr 0.00 in0.0 mm
03:31 AM 45.7°F7.6°C 43.0°F6.1°C 90% Calm Calm 0.9 mph1.4 kmh 29.62 in1003.0 mb 0.00 in0.0 mm 0.00 in/hr0.0 mm/hr 0.00 in0.0 mm
03:30 AM 45.7°F7.6°C 43.0°F6.1°C 90% 0.9 mph E1.4 kmh E 0.9 mph1.4 kmh 29.61 in1002.7 mb 0.00 in0.0 mm 0.00 in/hr0.0 mm/hr 0.00 in0.0 mm
03:29 AM 45.9°F7.7°C 43.2°F6.2°C 90% 0.9 mph E1.4 kmh E 0.9 mph1.4 kmh 29.61 in1002.7 mb 0.00 in0.0 mm 0.00 in/hr0.0 mm/hr 0.00 in0.0 mm
03:28 AM 45.9°F7.7°C 43.2°F6.2°C 90% 0.9 mph E1.4 kmh E 0.9 mph1.4 kmh 29.61 in1002.7 mb 0.00 in0.0 mm 0.00 in/hr0.0 mm/hr 0.00 in0.0 mm
03:27 AM 45.9°F7.7°C 43.2°F6.2°C 90% 0.9 mph E1.4 kmh E 0.9 mph1.4 kmh 29.61 in1002.7 mb 0.00 in0.0 mm 0.00 in/hr0.0 mm/hr 0.00 in0.0 mm
03:26 AM 45.9°F7.7°C 43.2°F6.2°C 90% 0.9 mph E1.4 kmh E 2.0 mph3.2 kmh 29.61 in1002.7 mb 0.00 in0.0 mm 0.00 in/hr0.0 mm/hr 0.00 in0.0 mm
03:25 AM 46.0°F7.8°C 43.3°F6.3°C 90% 0.9 mph ESE1.4 kmh ESE 2.0 mph3.2 kmh 29.61 in1002.7 mb 0.00 in0.0 mm 0.00 in/hr0.0 mm/hr 0.00 in0.0 mm
03:24 AM 46.0°F7.8°C 43.3°F6.3°C 90% 0.9 mph E1.4 kmh E 2.0 mph3.2 kmh 29.61 in1002.7 mb 0.00 in0.0 mm 0.00 in/hr0.0 mm/hr 0.00 in0.0 mm
03:23 AM 46.0°F7.8°C 43.3°F6.3°C 90% 0.9 mph ESE1.4 kmh ESE 0.9 mph1.4 kmh 29.61 in1002.7 mb 0.00 in0.0 mm 0.00 in/hr0.0 mm/hr 0.00 in0.0 mm
03:22 AM 46.0°F7.8°C 43.3°F6.3°C 90% 2.0 mph E3.2 kmh E 2.0 mph3.2 kmh 29.61 in1002.7 mb 0.00 in0.0 mm 0.00 in/hr0.0 mm/hr 0.00 in0.0 mm
03:21 AM 46.0°F7.8°C 43.3°F6.3°C 90% 2.0 mph SE3.2 kmh SE 0.9 mph1.4 kmh 29.61 in1002.7 mb 0.00 in0.0 mm 0.00 in/hr0.0 mm/hr 0.00 in0.0 mm
03:20 AM 46.2°F7.9°C 43.5°F6.4°C 90% 2.0 mph SE3.2 kmh SE 4.0 mph6.4 kmh 29.61 in1002.7 mb 0.00 in0.0 mm 0.00 in/hr0.0 mm/hr 0.00 in0.0 mm
03:19 AM 46.0°F7.8°C 43.3°F6.3°C 90% 2.0 mph ESE3.2 kmh ESE 2.9 mph4.7 kmh 29.61 in1002.7 mb 0.00 in0.0 mm 0.00 in/hr0.0 mm/hr 0.00 in0.0 mm
03:18 AM 46.0°F7.8°C 43.3°F6.3°C 90% 2.0 mph SE3.2 kmh SE 2.9 mph4.7 kmh 29.61 in1002.7 mb 0.00 in0.0 mm 0.00 in/hr0.0 mm/hr 0.00 in0.0 mm
03:17 AM 46.2°F7.9°C 43.5°F6.4°C 90% 2.0 mph ESE3.2 kmh ESE 2.9 mph4.7 kmh 29.61 in1002.7 mb 0.00 in0.0 mm 0.00 in/hr0.0 mm/hr 0.00 in0.0 mm
03:16 AM 46.2°F7.9°C 43.5°F6.4°C 90% 0.9 mph SE1.4 kmh SE 2.9 mph4.7 kmh 29.61 in1002.7 mb 0.00 in0.0 mm 0.00 in/hr0.0 mm/hr 0.00 in0.0 mm
03:15 AM 46.2°F7.9°C 43.5°F6.4°C 90% 0.9 mph SE1.4 kmh SE 2.0 mph3.2 kmh 29.61 in1002.7 mb 0.00 in0.0 mm 0.00 in/hr0.0 mm/hr 0.00 in0.0 mm
03:14 AM 46.2°F7.9°C 43.5°F6.4°C 90% 0.9 mph SE1.4 kmh SE 2.9 mph4.7 kmh 29.61 in1002.7 mb 0.00 in0.0 mm 0.00 in/hr0.0 mm/hr 0.00 in0.0 mm
03:13 AM 46.2°F7.9°C 43.5°F6.4°C 90% 0.9 mph SE1.4 kmh SE 4.0 mph6.4 kmh 29.61 in1002.7 mb 0.00 in0.0 mm 0.00 in/hr0.0 mm/hr 0.00 in0.0 mm
03:12 AM 46.2°F7.9°C 43.5°F6.4°C 90% 0.9 mph SSE1.4 kmh SSE 2.9 mph4.7 kmh 29.61 in1002.7 mb 0.00 in0.0 mm 0.00 in/hr0.0 mm/hr 0.00 in0.0 mm
03:11 AM 46.2°F7.9°C 43.5°F6.4°C 90% 0.9 mph SE1.4 kmh SE 2.9 mph4.7 kmh 29.61 in1002.7 mb 0.00 in0.0 mm 0.00 in/hr0.0 mm/hr 0.00 in0.0 mm
03:10 AM 46.2°F7.9°C 43.5°F6.4°C 90% 0.9 mph SE1.4 kmh SE 2.9 mph4.7 kmh 29.61 in1002.7 mb 0.00 in0.0 mm 0.00 in/hr0.0 mm/hr 0.00 in0.0 mm
03:09 AM 46.2°F7.9°C 43.5°F6.4°C 90% 0.9 mph SE1.4 kmh SE 2.9 mph4.7 kmh 29.61 in1002.7 mb 0.00 in0.0 mm 0.00 in/hr0.0 mm/hr 0.00 in0.0 mm
03:08 AM 46.2°F7.9°C 43.5°F6.4°C 90% 0.9 mph ESE1.4 kmh ESE 2.0 mph3.2 kmh 29.61 in1002.7 mb 0.00 in0.0 mm 0.00 in/hr0.0 mm/hr 0.00 in0.0 mm
03:07 AM 46.2°F7.9°C 43.5°F6.4°C 90% 0.9 mph SE1.4 kmh SE -- 29.61 in1002.7 mb 0.00 in0.0 mm 0.00 in/hr0.0 mm/hr 0.00 in0.0 mm
03:06 AM 46.2°F7.9°C 43.5°F6.4°C 90% 0.9 mph E1.4 kmh E 2.9 mph4.7 kmh 29.61 in1002.7 mb 0.00 in0.0 mm 0.00 in/hr0.0 mm/hr 0.00 in0.0 mm
03:05 AM 46.4°F8.0°C 43.7°F6.5°C 90% 0.9 mph E1.4 kmh E 2.9 mph4.7 kmh 29.61 in1002.7 mb 0.00 in0.0 mm 0.00 in/hr0.0 mm/hr 0.00 in0.0 mm
03:04 AM 46.4°F8.0°C 43.7°F6.5°C 90% 2.0 mph SE3.2 kmh SE 2.0 mph3.2 kmh 29.61 in1002.7 mb 0.00 in0.0 mm 0.00 in/hr0.0 mm/hr 0.00 in0.0 mm
03:03 AM 46.6°F8.1°C 43.9°F6.6°C 90% 2.0 mph SE3.2 kmh SE 0.9 mph1.4 kmh 29.61 in1002.7 mb 0.00 in0.0 mm 0.00 in/hr0.0 mm/hr 0.00 in0.0 mm
03:02 AM 46.6°F8.1°C 43.9°F6.6°C 90% 2.0 mph E3.2 kmh E 2.0 mph3.2 kmh 29.61 in1002.7 mb 0.00 in0.0 mm 0.00 in/hr0.0 mm/hr 0.00 in0.0 mm
03:01 AM 46.6°F8.1°C 43.9°F6.6°C 90% 2.0 mph SE3.2 kmh SE 2.9 mph4.7 kmh 29.61 in1002.7 mb 0.00 in0.0 mm 0.00 in/hr0.0 mm/hr 0.00 in0.0 mm
03:00 AM 46.6°F8.1°C 43.9°F6.6°C 90% 2.9 mph SE4.7 kmh SE 0.9 mph1.4 kmh 29.61 in1002.7 mb 0.00 in0.0 mm 0.00 in/hr0.0 mm/hr 0.00 in0.0 mm
02:59 AM 46.6°F8.1°C 43.9°F6.6°C 90% 2.9 mph SE4.7 kmh SE 7.0 mph11.3 kmh 29.61 in1002.7 mb 0.00 in0.0 mm 0.00 in/hr0.0 mm/hr 0.00 in0.0 mm
02:58 AM 46.6°F8.1°C 43.9°F6.6°C 90% 2.9 mph ESE4.7 kmh ESE 7.0 mph11.3 kmh 29.61 in1002.7 mb 0.00 in0.0 mm 0.00 in/hr0.0 mm/hr 0.00 in0.0 mm
02:57 AM 46.6°F8.1°C 43.9°F6.6°C 90% 2.9 mph SE4.7 kmh SE 2.9 mph4.7 kmh 29.61 in1002.7 mb 0.00 in0.0 mm 0.00 in/hr0.0 mm/hr 0.00 in0.0 mm
02:56 AM 46.6°F8.1°C 43.9°F6.6°C 90% 2.9 mph ESE4.7 kmh ESE 2.9 mph4.7 kmh 29.61 in1002.7 mb 0.00 in0.0 mm 0.00 in/hr0.0 mm/hr 0.00 in0.0 mm
02:55 AM 46.6°F8.1°C 43.9°F6.6°C 90% 2.9 mph SE4.7 kmh SE 2.9 mph4.7 kmh 29.61 in1002.7 mb 0.00 in0.0 mm 0.00 in/hr0.0 mm/hr 0.00 in0.0 mm
02:54 AM 46.6°F8.1°C 43.9°F6.6°C 90% 2.9 mph SE4.7 kmh SE 4.9 mph7.9 kmh 29.61 in1002.7 mb 0.00 in0.0 mm 0.00 in/hr0.0 mm/hr 0.00 in0.0 mm
02:53 AM 46.6°F8.1°C 43.9°F6.6°C 90% 2.9 mph ESE4.7 kmh ESE 4.9 mph7.9 kmh 29.61 in1002.7 mb 0.00 in0.0 mm 0.00 in/hr0.0 mm/hr 0.00 in0.0 mm
02:52 AM 46.6°F8.1°C 43.9°F6.6°C 90% 2.9 mph SE4.7 kmh SE 4.9 mph7.9 kmh 29.61 in1002.7 mb 0.00 in0.0 mm 0.00 in/hr0.0 mm/hr 0.00 in0.0 mm
02:51 AM 46.6°F8.1°C 43.9°F6.6°C 90% 2.9 mph SE4.7 kmh SE 6.0 mph9.7 kmh 29.61 in1002.7 mb 0.00 in0.0 mm 0.00 in/hr0.0 mm/hr 0.00 in0.0 mm
02:50 AM 46.6°F8.1°C 43.9°F6.6°C 90% 2.9 mph SE4.7 kmh SE 4.9 mph7.9 kmh 29.61 in1002.7 mb 0.00 in0.0 mm 0.00 in/hr0.0 mm/hr 0.00 in0.0 mm
02:49 AM 46.6°F8.1°C 43.9°F6.6°C 90% 2.0 mph SE3.2 kmh SE 6.9 mph11.1 kmh 29.61 in1002.7 mb 0.00 in0.0 mm 0.00 in/hr0.0 mm/hr 0.00 in0.0 mm
02:48 AM 46.6°F8.1°C 43.9°F6.6°C 90% 2.9 mph SSE4.7 kmh SSE 7.0 mph11.3 kmh 29.61 in1002.7 mb 0.00 in0.0 mm 0.00 in/hr0.0 mm/hr 0.00 in0.0 mm
02:47 AM 46.6°F8.1°C 43.9°F6.6°C 90% 2.0 mph SE3.2 kmh SE 6.0 mph9.7 kmh 29.61 in1002.7 mb 0.00 in0.0 mm 0.00 in/hr0.0 mm/hr 0.00 in0.0 mm
02:46 AM 46.6°F8.1°C 43.9°F6.6°C 90% 2.9 mph SE4.7 kmh SE 4.0 mph6.4 kmh 29.61 in1002.7 mb 0.00 in0.0 mm 0.00 in/hr0.0 mm/hr 0.00 in0.0 mm
02:45 AM 46.6°F8.1°C 43.9°F6.6°C 90% 2.9 mph SE4.7 kmh SE 2.9 mph4.7 kmh 29.62 in1003.0 mb 0.00 in0.0 mm 0.00 in/hr0.0 mm/hr 0.00 in0.0 mm
02:44 AM 46.6°F8.1°C 43.9°F6.6°C 90% 2.9 mph SE4.7 kmh SE 4.9 mph7.9 kmh 29.62 in1003.0 mb 0.00 in0.0 mm 0.00 in/hr0.0 mm/hr 0.00 in0.0 mm
02:43 AM 46.6°F8.1°C 44.1°F6.7°C 91% 2.9 mph SE4.7 kmh SE 4.9 mph7.9 kmh 29.62 in1003.0 mb 0.00 in0.0 mm 0.00 in/hr0.0 mm/hr 0.00 in0.0 mm
02:42 AM 46.4°F8.0°C 43.9°F6.6°C 91% 2.9 mph SE4.7 kmh SE 2.0 mph3.2 kmh 29.62 in1003.0 mb 0.00 in0.0 mm 0.00 in/hr0.0 mm/hr 0.00 in0.0 mm
02:41 AM 46.4°F8.0°C 43.9°F6.6°C 91% 2.9 mph SE4.7 kmh SE 2.9 mph4.7 kmh 29.62 in1003.0 mb 0.00 in0.0 mm 0.00 in/hr0.0 mm/hr 0.00 in0.0 mm
02:40 AM 46.4°F8.0°C 43.9°F6.6°C 91% 2.9 mph SE4.7 kmh SE 4.9 mph7.9 kmh 29.62 in1003.0 mb 0.00 in0.0 mm 0.00 in/hr0.0 mm/hr 0.00 in0.0 mm
02:39 AM 46.4°F8.0°C 43.9°F6.6°C 91% 2.9 mph SE4.7 kmh SE 2.9 mph4.7 kmh 29.62 in1003.0 mb 0.00 in0.0 mm 0.00 in/hr0.0 mm/hr 0.00 in0.0 mm
02:38 AM 46.2°F7.9°C 43.7°F6.5°C 91% 2.0 mph ESE3.2 kmh ESE 8.1 mph13.0 kmh 29.62 in1003.0 mb 0.00 in0.0 mm 0.00 in/hr0.0 mm/hr 0.00 in0.0 mm
02:37 AM 46.2°F7.9°C 43.7°F6.5°C 91% 2.0 mph SSE3.2 kmh SSE 4.9 mph7.9 kmh 29.62 in1003.0 mb 0.00 in0.0 mm 0.00 in/hr0.0 mm/hr 0.00 in0.0 mm
02:36 AM 46.2°F7.9°C 43.7°F6.5°C 91% 2.0 mph SSE3.2 kmh SSE 4.0 mph6.4 kmh 29.62 in1003.0 mb 0.00 in0.0 mm 0.00 in/hr0.0 mm/hr 0.00 in0.0 mm
02:35 AM 46.2°F7.9°C 43.7°F6.5°C 91% 2.0 mph SE3.2 kmh SE 4.0 mph6.4 kmh 29.62 in1003.0 mb 0.00 in0.0 mm 0.00 in/hr0.0 mm/hr 0.00 in0.0 mm
02:34 AM 46.2°F7.9°C 43.7°F6.5°C 91% 2.0 mph S3.2 kmh S 8.0 mph12.9 kmh 29.62 in1003.0 mb 0.00 in0.0 mm 0.00 in/hr0.0 mm/hr 0.00 in0.0 mm
02:33 AM 46.0°F7.8°C 43.5°F6.4°C 91% 2.0 mph S3.2 kmh S 8.0 mph12.9 kmh 29.62 in1003.0 mb 0.00 in0.0 mm 0.00 in/hr0.0 mm/hr 0.00 in0.0 mm
02:32 AM 46.0°F7.8°C 43.5°F6.4°C 91% 2.0 mph E3.2 kmh E 5.0 mph8.0 kmh 29.62 in1003.0 mb 0.00 in0.0 mm 0.00 in/hr0.0 mm/hr 0.00 in0.0 mm
02:31 AM 46.0°F7.8°C 43.5°F6.4°C 91% 0.9 mph SW1.4 kmh SW 4.0 mph6.4 kmh 29.62 in1003.0 mb 0.00 in0.0 mm 0.00 in/hr0.0 mm/hr 0.00 in0.0 mm
02:30 AM 46.0°F7.8°C 43.5°F6.4°C 91% 0.9 mph SE1.4 kmh SE 4.0 mph6.4 kmh 29.63 in1003.4 mb 0.00 in0.0 mm 0.00 in/hr0.0 mm/hr 0.00 in0.0 mm
02:29 AM 46.0°F7.8°C 43.5°F6.4°C 91% 0.9 mph SSE1.4 kmh SSE 2.0 mph3.2 kmh 29.63 in1003.4 mb 0.00 in0.0 mm 0.00 in/hr0.0 mm/hr 0.00 in0.0 mm
02:28 AM 46.0°F7.8°C 43.9°F6.6°C 92% 0.9 mph S1.4 kmh S 2.9 mph4.7 kmh 29.63 in1003.4 mb 0.00 in0.0 mm 0.00 in/hr0.0 mm/hr 0.00 in0.0 mm
02:27 AM 46.0°F7.8°C 43.9°F6.6°C 92% 0.9 mph SSE1.4 kmh SSE 2.9 mph4.7 kmh 29.63 in1003.4 mb 0.00 in0.0 mm 0.00 in/hr0.0 mm/hr 0.00 in0.0 mm
02:26 AM 46.0°F7.8°C 43.9°F6.6°C 92% 0.9 mph SE1.4 kmh SE 2.9 mph4.7 kmh 29.63 in1003.4 mb 0.00 in0.0 mm 0.00 in/hr0.0 mm/hr 0.00 in0.0 mm
02:25 AM 46.0°F7.8°C 43.9°F6.6°C 92% 0.9 mph S1.4 kmh S 2.9 mph4.7 kmh 29.63 in1003.4 mb 0.00 in0.0 mm 0.00 in/hr0.0 mm/hr 0.00 in0.0 mm
02:24 AM 46.0°F7.8°C 43.9°F6.6°C 92% 0.9 mph SE1.4 kmh SE 4.0 mph6.4 kmh 29.63 in1003.4 mb 0.00 in0.0 mm 0.00 in/hr0.0 mm/hr 0.00 in0.0 mm
02:23 AM 46.0°F7.8°C 43.9°F6.6°C 92% 0.9 mph SE1.4 kmh SE 2.9 mph4.7 kmh 29.63 in1003.4 mb 0.00 in0.0 mm 0.00 in/hr0.0 mm/hr 0.00 in0.0 mm
02:22 AM 46.0°F7.8°C 43.9°F6.6°C 92% 0.9 mph SE1.4 kmh SE 2.0 mph3.2 kmh 29.63 in1003.4 mb 0.00 in0.0 mm 0.00 in/hr0.0 mm/hr 0.00 in0.0 mm
02:21 AM 46.0°F7.8°C 43.9°F6.6°C 92% 0.9 mph SE1.4 kmh SE 2.0 mph3.2 kmh 29.63 in1003.4 mb 0.00 in0.0 mm 0.00 in/hr0.0 mm/hr 0.00 in0.0 mm
02:20 AM 46.0°F7.8°C 43.9°F6.6°C 92% 0.9 mph ESE1.4 kmh ESE 2.9 mph4.7 kmh 29.63 in1003.4 mb 0.00 in0.0 mm 0.00 in/hr0.0 mm/hr 0.00 in0.0 mm
02:19 AM 46.0°F7.8°C 43.9°F6.6°C 92% 0.9 mph ESE1.4 kmh ESE 2.9 mph4.7 kmh 29.63 in1003.4 mb 0.00 in0.0 mm 0.00 in/hr0.0 mm/hr 0.00 in0.0 mm
02:18 AM 46.0°F7.8°C 43.9°F6.6°C 92% 0.9 mph SE1.4 kmh SE 2.0 mph3.2 kmh 29.63 in1003.4 mb 0.00 in0.0 mm 0.00 in/hr0.0 mm/hr 0.00 in0.0 mm
02:17 AM 46.0°F7.8°C 43.9°F6.6°C 92% 0.9 mph SE1.4 kmh SE 0.9 mph1.4 kmh 29.63 in1003.4 mb 0.00 in0.0 mm 0.00 in/hr0.0 mm/hr 0.00 in0.0 mm
02:16 AM 46.0°F7.8°C 43.9°F6.6°C 92% 0.9 mph SE1.4 kmh SE 0.9 mph1.4 kmh 29.63 in1003.4 mb 0.00 in0.0 mm 0.00 in/hr0.0 mm/hr 0.00 in0.0 mm
02:15 AM 46.0°F7.8°C 43.9°F6.6°C 92% 0.9 mph ESE1.4 kmh ESE 0.9 mph1.4 kmh 29.63 in1003.4 mb 0.00 in0.0 mm 0.00 in/hr0.0 mm/hr 0.00 in0.0 mm
02:14 AM 46.0°F7.8°C 43.9°F6.6°C 92% 0.9 mph SSE1.4 kmh SSE 0.9 mph1.4 kmh 29.63 in1003.4 mb 0.00 in0.0 mm 0.00 in/hr0.0 mm/hr 0.00 in0.0 mm
02:13 AM 46.0°F7.8°C 43.9°F6.6°C 92% 0.9 mph SSE1.4 kmh SSE 2.0 mph3.2 kmh 29.63 in1003.4 mb 0.00 in0.0 mm 0.00 in/hr0.0 mm/hr 0.00 in0.0 mm
02:12 AM 46.0°F7.8°C 43.9°F6.6°C 92% 0.9 mph SE1.4 kmh SE 2.9 mph4.7 kmh 29.63 in1003.4 mb 0.00 in0.0 mm 0.00 in/hr0.0 mm/hr 0.00 in0.0 mm
02:11 AM 46.0°F7.8°C 43.9°F6.6°C 92% 0.9 mph E1.4 kmh E 2.9 mph4.7 kmh 29.63 in1003.4 mb 0.00 in0.0 mm 0.00 in/hr0.0 mm/hr 0.00 in0.0 mm
02:10 AM 46.0°F7.8°C 43.9°F6.6°C 92% 0.9 mph SE1.4 kmh SE 0.9 mph1.4 kmh 29.63 in1003.4 mb 0.00 in0.0 mm 0.00 in/hr0.0 mm/hr 0.00 in0.0 mm
02:09 AM 46.2°F7.9°C 44.1°F6.7°C 92% 0.9 mph SE1.4 kmh SE 2.9 mph4.7 kmh 29.63 in1003.4 mb 0.00 in0.0 mm 0.00 in/hr0.0 mm/hr 0.00 in0.0 mm
02:08 AM 46.2°F7.9°C 44.1°F6.7°C 92% 0.9 mph SE1.4 kmh SE 5.0 mph8.0 kmh 29.63 in1003.4 mb 0.00 in0.0 mm 0.00 in/hr0.0 mm/hr 0.00 in0.0 mm
02:07 AM 46.2°F7.9°C 44.1°F6.7°C 92% 2.0 mph SE3.2 kmh SE 4.0 mph6.4 kmh 29.63 in1003.4 mb 0.00 in0.0 mm 0.00 in/hr0.0 mm/hr 0.00 in0.0 mm
02:06 AM 46.2°F7.9°C 44.1°F6.7°C 92% 2.0 mph ESE3.2 kmh ESE 4.0 mph6.4 kmh 29.63 in1003.4 mb 0.00 in0.0 mm 0.00 in/hr0.0 mm/hr 0.00 in0.0 mm
02:05 AM 46.2°F7.9°C 44.1°F6.7°C 92% 2.0 mph ESE3.2 kmh ESE 2.9 mph4.7 kmh 29.63 in1003.4 mb 0.00 in0.0 mm 0.00 in/hr0.0 mm/hr 0.00 in0.0 mm
02:04 AM 46.2°F7.9°C 44.1°F6.7°C 92% 2.0 mph SE3.2 kmh SE -- 29.63 in1003.4 mb 0.00 in0.0 mm 0.00 in/hr0.0 mm/hr 0.00 in0.0 mm
02:03 AM 46.2°F7.9°C 44.1°F6.7°C 92% 2.0 mph SE3.2 kmh SE 0.9 mph1.4 kmh 29.63 in1003.4 mb 0.00 in0.0 mm 0.00 in/hr0.0 mm/hr 0.00 in0.0 mm
02:02 AM 46.2°F7.9°C 44.1°F6.7°C 92% 2.0 mph SE3.2 kmh SE 2.9 mph4.7 kmh 29.63 in1003.4 mb 0.00 in0.0 mm 0.00 in/hr0.0 mm/hr 0.00 in0.0 mm
02:01 AM 46.2°F7.9°C 44.1°F6.7°C 92% 2.0 mph ESE3.2 kmh ESE 4.0 mph6.4 kmh 29.63 in1003.4 mb 0.00 in0.0 mm 0.00 in/hr0.0 mm/hr 0.00 in0.0 mm
02:00 AM 46.2°F7.9°C 44.1°F6.7°C 92% 2.0 mph ESE3.2 kmh ESE 2.9 mph4.7 kmh 29.63 in1003.4 mb 0.00 in0.0 mm 0.00 in/hr0.0 mm/hr 0.00 in0.0 mm
01:59 AM 46.2°F7.9°C 44.1°F6.7°C 92% 2.0 mph SE3.2 kmh SE 4.0 mph6.4 kmh 29.63 in1003.4 mb 0.00 in0.0 mm 0.00 in/hr0.0 mm/hr 0.00 in0.0 mm
01:58 AM 46.4°F8.0°C 44.2°F6.8°C 92% 2.0 mph ESE3.2 kmh ESE 4.9 mph7.9 kmh 29.63 in1003.4 mb 0.00 in0.0 mm 0.00 in/hr0.0 mm/hr 0.00 in0.0 mm
01:57 AM 46.2°F7.9°C 44.1°F6.7°C 92% 2.0 mph ESE3.2 kmh ESE 4.0 mph6.4 kmh 29.63 in1003.4 mb 0.00 in0.0 mm 0.00 in/hr0.0 mm/hr 0.00 in0.0 mm
01:56 AM 46.2°F7.9°C 44.1°F6.7°C 92% 2.0 mph SE3.2 kmh SE 4.0 mph6.4 kmh 29.63 in1003.4 mb 0.00 in0.0 mm 0.00 in/hr0.0 mm/hr 0.00 in0.0 mm
01:55 AM 46.2°F7.9°C 44.1°F6.7°C 92% 2.0 mph SE3.2 kmh SE 2.9 mph4.7 kmh 29.63 in1003.4 mb 0.00 in0.0 mm 0.00 in/hr0.0 mm/hr 0.00 in0.0 mm
01:54 AM 46.2°F7.9°C 44.1°F6.7°C 92% 2.0 mph SE3.2 kmh SE 6.0 mph9.7 kmh 29.63 in1003.4 mb 0.00 in0.0 mm 0.00 in/hr0.0 mm/hr 0.00 in0.0 mm
01:53 AM 46.2°F7.9°C 44.1°F6.7°C 92% 2.0 mph ESE3.2 kmh ESE 4.0 mph6.4 kmh 29.63 in1003.4 mb 0.00 in0.0 mm 0.00 in/hr0.0 mm/hr 0.00 in0.0 mm
01:52 AM 46.2°F7.9°C 44.1°F6.7°C 92% 2.0 mph SE3.2 kmh SE 2.9 mph4.7 kmh 29.63 in1003.4 mb 0.00 in0.0 mm 0.00 in/hr0.0 mm/hr 0.00 in0.0 mm
01:51 AM 46.2°F7.9°C 44.1°F6.7°C 92% 2.0 mph S3.2 kmh S 2.9 mph4.7 kmh 29.63 in1003.4 mb 0.00 in0.0 mm 0.00 in/hr0.0 mm/hr 0.00 in0.0 mm
01:50 AM 46.2°F7.9°C 44.1°F6.7°C 92% 2.0 mph SE3.2 kmh SE 4.0 mph6.4 kmh 29.63 in1003.4 mb 0.00 in0.0 mm 0.00 in/hr0.0 mm/hr 0.00 in0.0 mm
01:49 AM 46.2°F7.9°C 44.1°F6.7°C 92% 2.0 mph ESE3.2 kmh ESE 4.9 mph7.9 kmh 29.63 in1003.4 mb 0.00 in0.0 mm 0.00 in/hr0.0 mm/hr 0.00 in0.0 mm
01:48 AM 46.2°F7.9°C 44.1°F6.7°C 92% 2.0 mph SE3.2 kmh SE 4.9 mph7.9 kmh 29.63 in1003.4 mb 0.00 in0.0 mm 0.00 in/hr0.0 mm/hr 0.00 in0.0 mm
01:47 AM 46.0°F7.8°C 43.9°F6.6°C 92% 2.0 mph SSE3.2 kmh SSE 4.9 mph7.9 kmh 29.63 in1003.4 mb 0.00 in0.0 mm 0.00 in/hr0.0 mm/hr 0.00 in0.0 mm
01:45 AM 46.0°F7.8°C 43.9°F6.6°C 92% 2.0 mph SSE3.2 kmh SSE 4.0 mph6.4 kmh 29.63 in1003.4 mb 0.00 in0.0 mm 0.00 in/hr0.0 mm/hr 0.00 in0.0 mm
01:44 AM 46.0°F7.8°C 43.9°F6.6°C 92% 0.9 mph SSE1.4 kmh SSE 4.0 mph6.4 kmh 29.63 in1003.4 mb 0.00 in0.0 mm 0.00 in/hr0.0 mm/hr 0.00 in0.0 mm
01:43 AM 46.0°F7.8°C 43.9°F6.6°C 92% 2.0 mph S3.2 kmh S 2.9 mph4.7 kmh 29.63 in1003.4 mb 0.00 in0.0 mm 0.00 in/hr0.0 mm/hr 0.00 in0.0 mm
01:42 AM 46.0°F7.8°C 43.9°F6.6°C 92% 2.0 mph SE3.2 kmh SE 2.9 mph4.7 kmh 29.63 in1003.4 mb 0.00 in0.0 mm 0.00 in/hr0.0 mm/hr 0.00 in0.0 mm
01:41 AM 46.0°F7.8°C 43.9°F6.6°C 92% 2.0 mph ESE3.2 kmh ESE 2.0 mph3.2 kmh 29.63 in1003.4 mb 0.00 in0.0 mm 0.00 in/hr0.0 mm/hr 0.00 in0.0 mm
01:40 AM 46.0°F7.8°C 43.9°F6.6°C 92% 2.0 mph SSE3.2 kmh SSE 4.0 mph6.4 kmh 29.63 in1003.4 mb 0.00 in0.0 mm 0.00 in/hr0.0 mm/hr 0.00 in0.0 mm
01:39 AM 46.0°F7.8°C 43.9°F6.6°C 92% 2.0 mph S3.2 kmh S 4.0 mph6.4 kmh 29.63 in1003.4 mb 0.00 in0.0 mm 0.00 in/hr0.0 mm/hr 0.00 in0.0 mm
01:38 AM 46.0°F7.8°C 43.9°F6.6°C 92% 2.0 mph S3.2 kmh S 2.9 mph4.7 kmh 29.63 in1003.4 mb 0.00 in0.0 mm 0.00 in/hr0.0 mm/hr 0.00 in0.0 mm
01:37 AM 46.0°F7.8°C 43.9°F6.6°C 92% 2.0 mph S3.2 kmh S 2.9 mph4.7 kmh 29.63 in1003.4 mb 0.00 in0.0 mm 0.00 in/hr0.0 mm/hr 0.00 in0.0 mm
01:36 AM 46.0°F7.8°C 43.9°F6.6°C 92% 2.0 mph S3.2 kmh S 2.0 mph3.2 kmh 29.63 in1003.4 mb 0.00 in0.0 mm 0.00 in/hr0.0 mm/hr 0.00 in0.0 mm
01:35 AM 46.0°F7.8°C 43.9°F6.6°C 92% 2.0 mph SE3.2 kmh SE 2.0 mph3.2 kmh 29.63 in1003.4 mb 0.00 in0.0 mm 0.00 in/hr0.0 mm/hr 0.00 in0.0 mm
01:34 AM 46.2°F7.9°C 44.1°F6.7°C 92% 2.0 mph SE3.2 kmh SE 4.0 mph6.4 kmh 29.63 in1003.4 mb 0.00 in0.0 mm 0.00 in/hr0.0 mm/hr 0.00 in0.0 mm
01:32 AM 46.2°F7.9°C 44.1°F6.7°C 92% 2.0 mph SE3.2 kmh SE 4.9 mph7.9 kmh 29.63 in1003.4 mb 0.00 in0.0 mm 0.00 in/hr0.0 mm/hr 0.00 in0.0 mm
01:31 AM 46.2°F7.9°C 44.1°F6.7°C 92% 2.0 mph SSE3.2 kmh SSE 4.9 mph7.9 kmh 29.63 in1003.4 mb 0.00 in0.0 mm 0.00 in/hr0.0 mm/hr 0.00 in0.0 mm
01:30 AM 46.2°F7.9°C 44.1°F6.7°C 92% 2.0 mph S3.2 kmh S 4.0 mph6.4 kmh 29.63 in1003.4 mb 0.00 in0.0 mm 0.00 in/hr0.0 mm/hr 0.00 in0.0 mm
01:29 AM 46.4°F8.0°C 44.2°F6.8°C 92% 2.0 mph S3.2 kmh S 4.0 mph6.4 kmh 29.64 in1003.7 mb 0.00 in0.0 mm 0.00 in/hr0.0 mm/hr 0.00 in0.0 mm
01:28 AM 46.4°F8.0°C 44.2°F6.8°C 92% 2.0 mph SSE3.2 kmh SSE 2.9 mph4.7 kmh 29.64 in1003.7 mb 0.00 in0.0 mm 0.00 in/hr0.0 mm/hr 0.00 in0.0 mm
01:27 AM 46.6°F8.1°C 44.4°F6.9°C 92% 2.0 mph SSE3.2 kmh SSE 4.0 mph6.4 kmh 29.64 in1003.7 mb 0.00 in0.0 mm 0.00 in/hr0.0 mm/hr 0.00 in0.0 mm
01:26 AM 46.6°F8.1°C 44.4°F6.9°C 92% 2.0 mph ESE3.2 kmh ESE 2.9 mph4.7 kmh 29.64 in1003.7 mb 0.00 in0.0 mm 0.00 in/hr0.0 mm/hr 0.00 in0.0 mm
01:24 AM 46.6°F8.1°C 44.4°F6.9°C 92% 0.9 mph SE1.4 kmh SE 2.9 mph4.7 kmh 29.64 in1003.7 mb 0.00 in0.0 mm 0.00 in/hr0.0 mm/hr 0.00 in0.0 mm
01:23 AM 46.4°F8.0°C 44.2°F6.8°C 92% 0.9 mph SE1.4 kmh SE 4.0 mph6.4 kmh 29.64 in1003.7 mb 0.00 in0.0 mm 0.00 in/hr0.0 mm/hr 0.00 in0.0 mm
01:22 AM 46.4°F8.0°C 44.2°F6.8°C 92% 0.9 mph ESE1.4 kmh ESE 2.9 mph4.7 kmh 29.64 in1003.7 mb 0.00 in0.0 mm 0.00 in/hr0.0 mm/hr 0.00 in0.0 mm
01:21 AM 46.4°F8.0°C 44.2°F6.8°C 92% 0.9 mph SE1.4 kmh SE 2.9 mph4.7 kmh 29.64 in1003.7 mb 0.00 in0.0 mm 0.00 in/hr0.0 mm/hr 0.00 in0.0 mm
01:20 AM 46.6°F8.1°C 44.4°F6.9°C 92% 0.9 mph SSE1.4 kmh SSE 2.0 mph3.2 kmh 29.64 in1003.7 mb 0.00 in0.0 mm 0.00 in/hr0.0 mm/hr 0.00 in0.0 mm
01:19 AM 46.6°F8.1°C 44.4°F6.9°C 92% 2.0 mph S3.2 kmh S 2.0 mph3.2 kmh 29.64 in1003.7 mb 0.00 in0.0 mm 0.00 in/hr0.0 mm/hr 0.00 in0.0 mm
01:18 AM 46.6°F8.1°C 44.4°F6.9°C 92% 2.0 mph S3.2 kmh S 2.0 mph3.2 kmh 29.64 in1003.7 mb 0.00 in0.0 mm 0.00 in/hr0.0 mm/hr 0.00 in0.0 mm
01:17 AM 46.6°F8.1°C 44.4°F6.9°C 92% 2.0 mph E3.2 kmh E 2.0 mph3.2 kmh 29.64 in1003.7 mb 0.00 in0.0 mm 0.00 in/hr0.0 mm/hr 0.00 in0.0 mm
01:16 AM 46.6°F8.1°C 44.4°F6.9°C 92% 2.0 mph SE3.2 kmh SE 2.0 mph3.2 kmh 29.64 in1003.7 mb 0.00 in0.0 mm 0.00 in/hr0.0 mm/hr 0.00 in0.0 mm
01:15 AM 46.6°F8.1°C 44.4°F6.9°C 92% 2.0 mph SE3.2 kmh SE 6.0 mph9.7 kmh 29.64 in1003.7 mb 0.00 in0.0 mm 0.00 in/hr0.0 mm/hr 0.00 in0.0 mm
01:14 AM 46.6°F8.1°C 44.4°F6.9°C 92% 2.0 mph SE3.2 kmh SE 6.0 mph9.7 kmh 29.64 in1003.7 mb 0.00 in0.0 mm 0.00 in/hr0.0 mm/hr 0.00 in0.0 mm
01:13 AM 46.6°F8.1°C 44.4°F6.9°C 92% 2.9 mph SE4.7 kmh SE 2.9 mph4.7 kmh 29.64 in1003.7 mb 0.00 in0.0 mm 0.00 in/hr0.0 mm/hr 0.00 in0.0 mm
01:12 AM 46.6°F8.1°C 44.4°F6.9°C 92% 2.9 mph ESE4.7 kmh ESE 0.9 mph1.4 kmh 29.64 in1003.7 mb 0.00 in0.0 mm 0.00 in/hr0.0 mm/hr 0.00 in0.0 mm
01:11 AM 46.6°F8.1°C 44.4°F6.9°C 92% 2.9 mph SE4.7 kmh SE 4.9 mph7.9 kmh 29.64 in1003.7 mb 0.00 in0.0 mm 0.00 in/hr0.0 mm/hr 0.00 in0.0 mm
01:10 AM 46.6°F8.1°C 44.4°F6.9°C 92% 2.9 mph SW4.7 kmh SW 4.9 mph7.9 kmh 29.64 in1003.7 mb 0.00 in0.0 mm 0.00 in/hr0.0 mm/hr 0.00 in0.0 mm
01:09 AM 46.6°F8.1°C 44.4°F6.9°C 92% 2.9 mph S4.7 kmh S 4.9 mph7.9 kmh 29.64 in1003.7 mb 0.00 in0.0 mm 0.00 in/hr0.0 mm/hr 0.00 in0.0 mm
01:08 AM 46.6°F8.1°C 44.4°F6.9°C 92% 2.9 mph S4.7 kmh S 4.9 mph7.9 kmh 29.64 in1003.7 mb 0.00 in0.0 mm 0.00 in/hr0.0 mm/hr 0.00 in0.0 mm
01:07 AM 46.6°F8.1°C 44.4°F6.9°C 92% 2.9 mph S4.7 kmh S 4.0 mph6.4 kmh 29.64 in1003.7 mb 0.00 in0.0 mm 0.00 in/hr0.0 mm/hr 0.00 in0.0 mm
01:06 AM 46.6°F8.1°C 44.4°F6.9°C 92% 2.9 mph SE4.7 kmh SE 2.0 mph3.2 kmh 29.64 in1003.7 mb 0.00 in0.0 mm 0.00 in/hr0.0 mm/hr 0.00 in0.0 mm
01:05 AM 46.6°F8.1°C 44.4°F6.9°C 92% 2.9 mph S4.7 kmh S 6.0 mph9.7 kmh 29.64 in1003.7 mb 0.00 in0.0 mm 0.00 in/hr0.0 mm/hr 0.00 in0.0 mm
01:04 AM 46.6°F8.1°C 44.4°F6.9°C 92% 2.9 mph S4.7 kmh S 4.0 mph6.4 kmh 29.64 in1003.7 mb 0.00 in0.0 mm 0.00 in/hr0.0 mm/hr 0.00 in0.0 mm
01:03 AM 46.6°F8.1°C 44.4°F6.9°C 92% 2.9 mph S4.7 kmh S 4.9 mph7.9 kmh 29.64 in1003.7 mb 0.00 in0.0 mm 0.00 in/hr0.0 mm/hr 0.00 in0.0 mm
01:01 AM 46.6°F8.1°C 44.4°F6.9°C 92% 2.9 mph SE4.7 kmh SE 4.9 mph7.9 kmh 29.64 in1003.7 mb 0.00 in0.0 mm 0.00 in/hr0.0 mm/hr 0.00 in0.0 mm
01:00 AM 46.6°F8.1°C 44.4°F6.9°C 92% 2.9 mph SSW4.7 kmh SSW 6.9 mph11.1 kmh 29.64 in1003.7 mb 0.00 in0.0 mm 0.00 in/hr0.0 mm/hr 0.00 in0.0 mm
12:59 AM 46.8°F8.2°C 44.6°F7.0°C 92% 2.0 mph S3.2 kmh S 4.0 mph6.4 kmh 29.65 in1004.1 mb 0.00 in0.0 mm 0.00 in/hr0.0 mm/hr 0.00 in0.0 mm
12:58 AM 46.8°F8.2°C 44.6°F7.0°C 92% 2.9 mph S4.7 kmh S 4.0 mph6.4 kmh 29.65 in1004.1 mb 0.00 in0.0 mm 0.00 in/hr0.0 mm/hr 0.00 in0.0 mm
12:57 AM 46.8°F8.2°C 44.6°F7.0°C 92% 2.9 mph SE4.7 kmh SE 2.9 mph4.7 kmh 29.65 in1004.1 mb 0.00 in0.0 mm 0.00 in/hr0.0 mm/hr 0.00 in0.0 mm
12:56 AM 46.8°F8.2°C 44.6°F7.0°C 92% 2.9 mph S4.7 kmh S 4.0 mph6.4 kmh 29.65 in1004.1 mb 0.00 in0.0 mm 0.00 in/hr0.0 mm/hr 0.00 in0.0 mm
12:55 AM 46.8°F8.2°C 44.6°F7.0°C 92% 2.9 mph SSE4.7 kmh SSE 4.0 mph6.4 kmh 29.65 in1004.1 mb 0.00 in0.0 mm 0.00 in/hr0.0 mm/hr 0.00 in0.0 mm
12:54 AM 46.8°F8.2°C 44.6°F7.0°C 92% 2.9 mph SSW4.7 kmh SSW 4.0 mph6.4 kmh 29.65 in1004.1 mb 0.00 in0.0 mm 0.00 in/hr0.0 mm/hr 0.00 in0.0 mm
12:53 AM 46.8°F8.2°C 44.6°F7.0°C 92% 2.9 mph S4.7 kmh S 4.0 mph6.4 kmh 29.65 in1004.1 mb 0.00 in0.0 mm 0.00 in/hr0.0 mm/hr 0.00 in0.0 mm
12:52 AM 46.9°F8.3°C 44.8°F7.1°C 92% 2.9 mph S4.7 kmh S 4.0 mph6.4 kmh 29.65 in1004.1 mb 0.00 in0.0 mm 0.00 in/hr0.0 mm/hr 0.00 in0.0 mm
12:51 AM 46.9°F8.3°C 44.8°F7.1°C 92% 4.0 mph S6.4 kmh S 7.0 mph11.3 kmh 29.65 in1004.1 mb 0.00 in0.0 mm 0.00 in/hr0.0 mm/hr 0.00 in0.0 mm
12:50 AM 46.9°F8.3°C 44.8°F7.1°C 92% 4.0 mph S6.4 kmh S 4.0 mph6.4 kmh 29.65 in1004.1 mb 0.00 in0.0 mm 0.00 in/hr0.0 mm/hr 0.00 in0.0 mm
12:49 AM 46.9°F8.3°C 44.8°F7.1°C 92% 4.0 mph SSW6.4 kmh SSW 4.0 mph6.4 kmh 29.65 in1004.1 mb 0.00 in0.0 mm 0.00 in/hr0.0 mm/hr 0.00 in0.0 mm
12:48 AM 47.1°F8.4°C 45.0°F7.2°C 92% 4.0 mph S6.4 kmh S 6.0 mph9.7 kmh 29.65 in1004.1 mb 0.00 in0.0 mm 0.00 in/hr0.0 mm/hr 0.00 in0.0 mm
12:47 AM 47.1°F8.4°C 45.0°F7.2°C 92% 4.9 mph S7.9 kmh S 6.0 mph9.7 kmh 29.65 in1004.1 mb 0.00 in0.0 mm 0.00 in/hr0.0 mm/hr 0.00 in0.0 mm
12:46 AM 47.1°F8.4°C 45.0°F7.2°C 92% 4.9 mph SSW7.9 kmh SSW 6.0 mph9.7 kmh 29.65 in1004.1 mb 0.00 in0.0 mm 0.00 in/hr0.0 mm/hr 0.00 in0.0 mm
12:45 AM 47.1°F8.4°C 45.0°F7.2°C 92% 4.9 mph SSW7.9 kmh SSW 6.0 mph9.7 kmh 29.66 in1004.4 mb 0.00 in0.0 mm 0.00 in/hr0.0 mm/hr 0.00 in0.0 mm
12:44 AM 47.1°F8.4°C 45.0°F7.2°C 92% 4.9 mph SSW7.9 kmh SSW 6.0 mph9.7 kmh 29.66 in1004.4 mb 0.00 in0.0 mm 0.00 in/hr0.0 mm/hr 0.00 in0.0 mm
12:43 AM 47.1°F8.4°C 44.6°F7.0°C 91% 6.0 mph S9.7 kmh S 4.9 mph7.9 kmh 29.66 in1004.4 mb 0.00 in0.0 mm 0.00 in/hr0.0 mm/hr 0.00 in0.0 mm
12:42 AM 47.1°F8.4°C 44.6°F7.0°C 91% 6.0 mph S9.7 kmh S 6.9 mph11.1 kmh 29.66 in1004.4 mb 0.00 in0.0 mm 0.00 in/hr0.0 mm/hr 0.00 in0.0 mm
12:40 AM 47.1°F8.4°C 45.0°F7.2°C 92% 6.0 mph S9.7 kmh S 8.1 mph13.0 kmh 29.66 in1004.4 mb 0.00 in0.0 mm 0.00 in/hr0.0 mm/hr 0.00 in0.0 mm
12:39 AM 47.1°F8.4°C 44.6°F7.0°C 91% 6.0 mph SW9.7 kmh SW 8.1 mph13.0 kmh 29.66 in1004.4 mb 0.00 in0.0 mm 0.00 in/hr0.0 mm/hr 0.00 in0.0 mm
12:38 AM 47.1°F8.4°C 45.0°F7.2°C 92% 6.0 mph S9.7 kmh S 6.9 mph11.1 kmh 29.66 in1004.4 mb 0.00 in0.0 mm 0.00 in/hr0.0 mm/hr 0.00 in0.0 mm
12:37 AM 47.1°F8.4°C 45.0°F7.2°C 92% 6.0 mph SSW9.7 kmh SSW 8.1 mph13.0 kmh 29.66 in1004.4 mb 0.00 in0.0 mm 0.00 in/hr0.0 mm/hr 0.00 in0.0 mm
12:36 AM 47.1°F8.4°C 44.6°F7.0°C 91% 6.0 mph S9.7 kmh S 8.1 mph13.0 kmh 29.66 in1004.4 mb 0.00 in0.0 mm 0.00 in/hr0.0 mm/hr 0.00 in0.0 mm
12:35 AM 47.1°F8.4°C 44.6°F7.0°C 91% 6.0 mph SSW9.7 kmh SSW 6.9 mph11.1 kmh 29.66 in1004.4 mb 0.00 in0.0 mm 0.00 in/hr0.0 mm/hr 0.00 in0.0 mm
12:34 AM 47.1°F8.4°C 45.0°F7.2°C 92% 6.0 mph SSW9.7 kmh SSW 8.1 mph13.0 kmh 29.66 in1004.4 mb 0.00 in0.0 mm 0.00 in/hr0.0 mm/hr 0.00 in0.0 mm
12:33 AM 47.1°F8.4°C 45.0°F7.2°C 92% 4.9 mph S7.9 kmh S 10.0 mph16.1 kmh 29.66 in1004.4 mb 0.00 in0.0 mm 0.00 in/hr0.0 mm/hr 0.00 in0.0 mm
12:32 AM 47.1°F8.4°C 45.0°F7.2°C 92% 4.9 mph SW7.9 kmh SW 8.1 mph13.0 kmh 29.66 in1004.4 mb 0.00 in0.0 mm 0.00 in/hr0.0 mm/hr 0.00 in0.0 mm
12:31 AM 47.1°F8.4°C 45.0°F7.2°C 92% 4.9 mph SSW7.9 kmh SSW 6.9 mph11.1 kmh 29.66 in1004.4 mb 0.00 in0.0 mm 0.00 in/hr0.0 mm/hr 0.00 in0.0 mm
12:30 AM 47.3°F8.5°C 44.8°F7.1°C 91% 4.9 mph S7.9 kmh S 6.9 mph11.1 kmh 29.66 in1004.4 mb 0.00 in0.0 mm 0.00 in/hr0.0 mm/hr 0.00 in0.0 mm
12:29 AM 47.3°F8.5°C 45.1°F7.3°C 92% 4.9 mph SSW7.9 kmh SSW 8.1 mph13.0 kmh 29.66 in1004.4 mb 0.00 in0.0 mm 0.00 in/hr0.0 mm/hr 0.00 in0.0 mm
12:28 AM 47.3°F8.5°C 45.1°F7.3°C 92% 4.9 mph SSW7.9 kmh SSW 6.0 mph9.7 kmh 29.66 in1004.4 mb 0.00 in0.0 mm 0.00 in/hr0.0 mm/hr 0.00 in0.0 mm
12:27 AM 47.3°F8.5°C 45.1°F7.3°C 92% 4.0 mph S6.4 kmh S 6.0 mph9.7 kmh 29.66 in1004.4 mb 0.00 in0.0 mm 0.00 in/hr0.0 mm/hr 0.00 in0.0 mm
12:26 AM 47.3°F8.5°C 45.1°F7.3°C 92% 4.0 mph S6.4 kmh S 6.0 mph9.7 kmh 29.66 in1004.4 mb 0.00 in0.0 mm 0.00 in/hr0.0 mm/hr 0.00 in0.0 mm
12:25 AM 47.3°F8.5°C 45.1°F7.3°C 92% 4.0 mph SSW6.4 kmh SSW 6.9 mph11.1 kmh 29.66 in1004.4 mb 0.00 in0.0 mm 0.00 in/hr0.0 mm/hr 0.00 in0.0 mm
12:24 AM 47.3°F8.5°C 45.1°F7.3°C 92% 4.0 mph S6.4 kmh S 6.0 mph9.7 kmh 29.66 in1004.4 mb 0.00 in0.0 mm 0.00 in/hr0.0 mm/hr 0.00 in0.0 mm
12:23 AM 47.3°F8.5°C 45.1°F7.3°C 92% 4.0 mph S6.4 kmh S 6.0 mph9.7 kmh 29.66 in1004.4 mb 0.00 in0.0 mm 0.00 in/hr0.0 mm/hr 0.00 in0.0 mm
12:22 AM 47.3°F8.5°C 45.1°F7.3°C 92% 4.0 mph SW6.4 kmh SW 6.9 mph11.1 kmh 29.66 in1004.4 mb 0.00 in0.0 mm 0.00 in/hr0.0 mm/hr 0.00 in0.0 mm
12:21 AM 47.3°F8.5°C 45.1°F7.3°C 92% 4.0 mph S6.4 kmh S 6.0 mph9.7 kmh 29.66 in1004.4 mb 0.00 in0.0 mm 0.00 in/hr0.0 mm/hr 0.00 in0.0 mm
12:19 AM 47.3°F8.5°C 45.1°F7.3°C 92% 4.0 mph S6.4 kmh S 6.0 mph9.7 kmh 29.66 in1004.4 mb 0.00 in0.0 mm 0.00 in/hr0.0 mm/hr 0.00 in0.0 mm
12:18 AM 47.3°F8.5°C 44.8°F7.1°C 91% 2.9 mph S4.7 kmh S 4.9 mph7.9 kmh 29.66 in1004.4 mb 0.00 in0.0 mm 0.00 in/hr0.0 mm/hr 0.00 in0.0 mm
12:17 AM 47.5°F8.6°C 45.0°F7.2°C 91% 2.9 mph SSW4.7 kmh SSW 4.9 mph7.9 kmh 29.66 in1004.4 mb 0.00 in0.0 mm 0.00 in/hr0.0 mm/hr 0.00 in0.0 mm
12:16 AM 47.5°F8.6°C 45.0°F7.2°C 91% 2.9 mph SE4.7 kmh SE 4.9 mph7.9 kmh 29.66 in1004.4 mb 0.00 in0.0 mm 0.00 in/hr0.0 mm/hr 0.00 in0.0 mm
12:15 AM 47.5°F8.6°C 45.0°F7.2°C 91% 4.0 mph SSE6.4 kmh SSE 4.0 mph6.4 kmh 29.66 in1004.4 mb 0.00 in0.0 mm 0.00 in/hr0.0 mm/hr 0.00 in0.0 mm
12:14 AM 47.5°F8.6°C 45.0°F7.2°C 91% 4.0 mph S6.4 kmh S 6.9 mph11.1 kmh 29.66 in1004.4 mb 0.00 in0.0 mm 0.00 in/hr0.0 mm/hr 0.00 in0.0 mm
12:13 AM 47.5°F8.6°C 45.0°F7.2°C 91% 4.0 mph S6.4 kmh S 7.0 mph11.3 kmh 29.66 in1004.4 mb 0.00 in0.0 mm 0.00 in/hr0.0 mm/hr 0.00 in0.0 mm
12:12 AM 47.5°F8.6°C 45.0°F7.2°C 91% 4.0 mph S6.4 kmh S 4.9 mph7.9 kmh 29.66 in1004.4 mb 0.00 in0.0 mm 0.00 in/hr0.0 mm/hr 0.00 in0.0 mm
12:11 AM 47.5°F8.6°C 45.0°F7.2°C 91% 4.0 mph S6.4 kmh S 6.0 mph9.7 kmh 29.66 in1004.4 mb 0.00 in0.0 mm 0.00 in/hr0.0 mm/hr 0.00 in0.0 mm
12:10 AM 47.5°F8.6°C 45.0°F7.2°C 91% 4.0 mph SSE6.4 kmh SSE 6.0 mph9.7 kmh 29.66 in1004.4 mb 0.00 in0.0 mm 0.00 in/hr0.0 mm/hr 0.00 in0.0 mm
12:09 AM 47.5°F8.6°C 45.0°F7.2°C 91% 4.0 mph S6.4 kmh S 4.0 mph6.4 kmh 29.66 in1004.4 mb 0.00 in0.0 mm 0.00 in/hr0.0 mm/hr 0.00 in0.0 mm
12:08 AM 47.7°F8.7°C 45.1°F7.3°C 91% 4.0 mph SE6.4 kmh SE 4.9 mph7.9 kmh 29.66 in1004.4 mb 0.00 in0.0 mm 0.00 in/hr0.0 mm/hr 0.00 in0.0 mm
12:07 AM 47.7°F8.7°C 45.1°F7.3°C 91% 4.9 mph SW7.9 kmh SW 4.9 mph7.9 kmh 29.66 in1004.4 mb 0.00 in0.0 mm 0.00 in/hr0.0 mm/hr 0.00 in0.0 mm
12:06 AM 47.7°F8.7°C 45.1°F7.3°C 91% 4.9 mph SSE7.9 kmh SSE 6.0 mph9.7 kmh 29.66 in1004.4 mb 0.00 in0.0 mm 0.00 in/hr0.0 mm/hr 0.00 in0.0 mm
12:05 AM 47.7°F8.7°C 45.1°F7.3°C 91% 4.9 mph S7.9 kmh S 6.0 mph9.7 kmh 29.66 in1004.4 mb 0.00 in0.0 mm 0.00 in/hr0.0 mm/hr 0.00 in0.0 mm
12:04 AM 47.7°F8.7°C 45.1°F7.3°C 91% 4.9 mph SW7.9 kmh SW 8.0 mph12.9 kmh 29.66 in1004.4 mb 0.00 in0.0 mm 0.00 in/hr0.0 mm/hr 0.00 in0.0 mm
12:03 AM 47.7°F8.7°C 45.1°F7.3°C 91% 4.9 mph SSW7.9 kmh SSW 8.0 mph12.9 kmh 29.66 in1004.4 mb 0.00 in0.0 mm 0.00 in/hr0.0 mm/hr 0.00 in0.0 mm
12:02 AM 47.7°F8.7°C 45.1°F7.3°C 91% 4.9 mph S7.9 kmh S 6.0 mph9.7 kmh 29.66 in1004.4 mb 0.00 in0.0 mm 0.00 in/hr0.0 mm/hr 0.00 in0.0 mm
12:01 AM 47.7°F8.7°C 45.1°F7.3°C 91% 4.9 mph SSW7.9 kmh SSW 6.0 mph9.7 kmh 29.66 in1004.4 mb 0.00 in0.0 mm 0.00 in/hr0.0 mm/hr 0.00 in0.0 mm
12:00 AM 47.7°F8.7°C 45.1°F7.3°C 91% 4.0 mph SSW6.4 kmh SSW 6.0 mph9.7 kmh 29.66 in1004.4 mb 0.00 in0.0 mm 0.00 in/hr0.0 mm/hr 0.00 in0.0 mm
WeatherForYou.com, LLC is not responsible for any damages or problems caused by this service. Current weather conditions are obtained from the closest station including government and personal stations which may have varying degrees of accuracy. Weather forecasts are derived from the NOAA NDFD and obtained through HAMweather's Aeris Weather API. Like all things, this site belongs to Jesus Christ... He just trusts me to maintain it. If you have any questions or comments email webmaster@weatherforyou.com

Copyright © 2014, WeatherForYou.com LLC. All rights reserved.